PWSweather.com
Personal Weather Stations
Station Observations
BOOMEPH
Weather On The Hill Or Not, Ephrata, PA 17522

Weather On The Hill Or NotEphrata, PA 17522

Lat: 40.17243, Lon: -76.180815

Elevation: 597

Station Type: Ambient WS 1080

Latest ConditionsUpdated 10:15:00 AM EST Friday, Feb 27, 2015
Currently Today's Max Today's Min Today's Average
Temperature 18.5°F-7.5°C 25.5°F-3.6°C 16.9°F-8.4°C 20.7°F-6.3°C
Dew Point -3.4°F-19.7°C 14.4°F-9.8°C -3.4°F-19.7°C 8.2°F-13.2°C
Winds 3.8 mph NE6.1 kmh NE 8.3 mph NE13.4 kmh NE - 3.5 mph 5.6 kmh
Wind Gusts 10.7 mph17.2 kmh 13.0 mph20.9 kmh - -
Humidity 37% 68% 37% 58%
Pressure 30.28 in1025.4 mb 30.28 in1025.4 mb 29.99 in1015.6 mb -
Hour Temp Dew Point Humidity Winds Wind Gusts Pressure Precip Precip Rate Daily Precip Total
10:15 AM 18.5°F-7.5°C -3.4°F-19.7°C 37% 3.8 mph NE6.1 kmh NE 10.7 mph17.2 kmh 30.28 in1025.4 mb 0.00 in0.0 mm 0.00 in/hr0.0 mm/hr 0.00 in0.0 mm
10:14 AM 18.5°F-7.5°C -3.4°F-19.7°C 37% 6.9 mph NE11.1 kmh NE 10.7 mph17.2 kmh 30.28 in1025.4 mb 0.00 in0.0 mm 0.00 in/hr0.0 mm/hr 0.00 in0.0 mm
10:13 AM 19.0°F-7.2°C -2.3°F-19.1°C 38% 6.9 mph NE11.1 kmh NE 10.7 mph17.2 kmh 30.28 in1025.4 mb 0.00 in0.0 mm 0.00 in/hr0.0 mm/hr 0.00 in0.0 mm
10:12 AM 20.5°F-6.4°C 2.6°F-16.3°C 45% 6.9 mph NE11.1 kmh NE 10.7 mph17.2 kmh 30.28 in1025.4 mb 0.00 in0.0 mm 0.00 in/hr0.0 mm/hr 0.00 in0.0 mm
10:11 AM 19.4°F-7.0°C 1.6°F-16.9°C 45% 4.5 mph NE7.2 kmh NE 10.7 mph17.2 kmh 30.28 in1025.4 mb 0.00 in0.0 mm 0.00 in/hr0.0 mm/hr 0.00 in0.0 mm
10:10 AM 19.8°F-6.8°C 2.4°F-16.4°C 46% 7.6 mph ENE12.2 kmh ENE 10.7 mph17.2 kmh 30.28 in1025.4 mb 0.00 in0.0 mm 0.00 in/hr0.0 mm/hr 0.00 in0.0 mm
10:09 AM 19.2°F-7.1°C -0.5°F-18.1°C 41% 3.1 mph ENE5.0 kmh ENE 10.7 mph17.2 kmh 30.28 in1025.4 mb 0.00 in0.0 mm 0.00 in/hr0.0 mm/hr 0.00 in0.0 mm
10:08 AM 19.9°F-6.7°C 2.6°F-16.3°C 46% 6.9 mph ENE11.1 kmh ENE 10.7 mph17.2 kmh 30.28 in1025.4 mb 0.00 in0.0 mm 0.00 in/hr0.0 mm/hr 0.00 in0.0 mm
10:07 AM 19.9°F-6.7°C 2.6°F-16.3°C 46% 4.5 mph ENE7.2 kmh ENE 10.7 mph17.2 kmh 30.28 in1025.4 mb 0.00 in0.0 mm 0.00 in/hr0.0 mm/hr 0.00 in0.0 mm
10:06 AM 19.9°F-6.7°C 2.6°F-16.3°C 46% 5.4 mph ENE8.7 kmh ENE 10.7 mph17.2 kmh 30.28 in1025.4 mb 0.00 in0.0 mm 0.00 in/hr0.0 mm/hr 0.00 in0.0 mm
10:05 AM 19.9°F-6.7°C 2.6°F-16.3°C 46% 5.4 mph ENE8.7 kmh ENE 10.7 mph17.2 kmh 30.28 in1025.4 mb 0.00 in0.0 mm 0.00 in/hr0.0 mm/hr 0.00 in0.0 mm
10:04 AM 19.9°F-6.7°C 2.6°F-16.3°C 46% 6.0 mph ENE9.7 kmh ENE 10.7 mph17.2 kmh 30.28 in1025.4 mb 0.00 in0.0 mm 0.00 in/hr0.0 mm/hr 0.00 in0.0 mm
10:03 AM 19.6°F-6.9°C 2.2°F-16.6°C 46% 6.0 mph ENE9.7 kmh ENE 10.7 mph17.2 kmh 30.28 in1025.4 mb 0.00 in0.0 mm 0.00 in/hr0.0 mm/hr 0.00 in0.0 mm
10:02 AM 19.4°F-7.0°C 2.1°F-16.6°C 46% 5.4 mph ENE8.7 kmh ENE 10.7 mph17.2 kmh 30.27 in1025.1 mb 0.00 in0.0 mm 0.00 in/hr0.0 mm/hr 0.00 in0.0 mm
10:01 AM 19.0°F-7.2°C -0.7°F-18.2°C 41% 5.4 mph ENE8.7 kmh ENE 10.7 mph17.2 kmh 30.27 in1025.1 mb 0.00 in0.0 mm 0.00 in/hr0.0 mm/hr 0.00 in0.0 mm
10:00 AM 18.9°F-7.3°C -0.9°F-18.3°C 41% 6.9 mph ENE11.1 kmh ENE 10.7 mph17.2 kmh 30.27 in1025.1 mb 0.00 in0.0 mm 0.00 in/hr0.0 mm/hr 0.00 in0.0 mm
09:59 AM 19.0°F-7.2°C -0.7°F-18.2°C 41% 7.6 mph ENE12.2 kmh ENE 11.4 mph18.3 kmh 30.27 in1025.1 mb 0.00 in0.0 mm 0.00 in/hr0.0 mm/hr 0.00 in0.0 mm
09:58 AM 19.2°F-7.1°C 0.0°F-17.8°C 42% 6.9 mph ENE11.1 kmh ENE 11.4 mph18.3 kmh 30.27 in1025.1 mb 0.00 in0.0 mm 0.00 in/hr0.0 mm/hr 0.00 in0.0 mm
09:57 AM 19.0°F-7.2°C -0.2°F-17.9°C 42% 6.0 mph ENE9.7 kmh ENE 11.4 mph18.3 kmh 30.27 in1025.1 mb 0.00 in0.0 mm 0.00 in/hr0.0 mm/hr 0.00 in0.0 mm
09:56 AM 18.5°F-7.5°C -1.2°F-18.4°C 41% 4.5 mph ENE7.2 kmh ENE 11.4 mph18.3 kmh 30.27 in1025.1 mb 0.00 in0.0 mm 0.00 in/hr0.0 mm/hr 0.00 in0.0 mm
09:55 AM 18.3°F-7.6°C -1.4°F-18.6°C 41% 7.6 mph ENE12.2 kmh ENE 11.4 mph18.3 kmh 30.27 in1025.1 mb 0.00 in0.0 mm 0.00 in/hr0.0 mm/hr 0.00 in0.0 mm
09:54 AM 19.0°F-7.2°C -0.7°F-18.2°C 41% 6.9 mph ENE11.1 kmh ENE 11.4 mph18.3 kmh 30.27 in1025.1 mb 0.00 in0.0 mm 0.00 in/hr0.0 mm/hr 0.00 in0.0 mm
09:53 AM 18.7°F-7.4°C -1.0°F-18.3°C 41% 4.5 mph ENE7.2 kmh ENE 11.4 mph18.3 kmh 30.27 in1025.1 mb 0.00 in0.0 mm 0.00 in/hr0.0 mm/hr 0.00 in0.0 mm
09:52 AM 18.3°F-7.6°C -1.4°F-18.6°C 41% 5.4 mph ENE8.7 kmh ENE 11.4 mph18.3 kmh 30.27 in1025.1 mb 0.00 in0.0 mm 0.00 in/hr0.0 mm/hr 0.00 in0.0 mm
09:51 AM 18.7°F-7.4°C -1.0°F-18.3°C 41% 6.9 mph ENE11.1 kmh ENE 11.4 mph18.3 kmh 30.27 in1025.1 mb 0.00 in0.0 mm 0.00 in/hr0.0 mm/hr 0.00 in0.0 mm
09:50 AM 19.2°F-7.1°C -0.5°F-18.1°C 41% 5.4 mph NE8.7 kmh NE 11.4 mph18.3 kmh 30.27 in1025.1 mb 0.00 in0.0 mm 0.00 in/hr0.0 mm/hr 0.00 in0.0 mm
09:49 AM 19.4°F-7.0°C 2.1°F-16.6°C 46% 6.0 mph NE9.7 kmh NE 11.4 mph18.3 kmh 30.27 in1025.1 mb 0.00 in0.0 mm 0.00 in/hr0.0 mm/hr 0.00 in0.0 mm
09:48 AM 18.5°F-7.5°C -1.2°F-18.4°C 41% 3.8 mph NE6.1 kmh NE 11.4 mph18.3 kmh 30.27 in1025.1 mb 0.00 in0.0 mm 0.00 in/hr0.0 mm/hr 0.00 in0.0 mm
09:47 AM 20.1°F-6.6°C 3.2°F-16.0°C 47% 6.0 mph NE9.7 kmh NE 11.4 mph18.3 kmh 30.27 in1025.1 mb 0.00 in0.0 mm 0.00 in/hr0.0 mm/hr 0.00 in0.0 mm
09:46 AM 19.9°F-6.7°C 3.0°F-16.1°C 47% 4.5 mph NE7.2 kmh NE 9.8 mph15.8 kmh 30.26 in1024.7 mb 0.00 in0.0 mm 0.00 in/hr0.0 mm/hr 0.00 in0.0 mm
09:45 AM 19.6°F-6.9°C 2.7°F-16.3°C 47% 3.8 mph NE6.1 kmh NE 9.8 mph15.8 kmh 30.26 in1024.7 mb 0.00 in0.0 mm 0.00 in/hr0.0 mm/hr 0.00 in0.0 mm
09:44 AM 19.8°F-6.8°C 2.9°F-16.2°C 47% 6.9 mph NNE11.1 kmh NNE 9.8 mph15.8 kmh 30.26 in1024.7 mb 0.00 in0.0 mm 0.00 in/hr0.0 mm/hr 0.00 in0.0 mm
09:43 AM 19.0°F-7.2°C -0.2°F-17.9°C 42% 3.1 mph NE5.0 kmh NE 9.8 mph15.8 kmh 30.26 in1024.7 mb 0.00 in0.0 mm 0.00 in/hr0.0 mm/hr 0.00 in0.0 mm
09:42 AM 18.9°F-7.3°C -0.4°F-18.0°C 42% 5.4 mph NE8.7 kmh NE 9.8 mph15.8 kmh 30.26 in1024.7 mb 0.00 in0.0 mm 0.00 in/hr0.0 mm/hr 0.00 in0.0 mm
09:41 AM 19.2°F-7.1°C 0.0°F-17.8°C 42% 7.6 mph NE12.2 kmh NE 12.1 mph19.5 kmh 30.26 in1024.7 mb 0.00 in0.0 mm 0.00 in/hr0.0 mm/hr 0.00 in0.0 mm
09:40 AM 18.3°F-7.6°C -1.4°F-18.6°C 41% 6.0 mph NE9.7 kmh NE 12.1 mph19.5 kmh 30.26 in1024.7 mb 0.00 in0.0 mm 0.00 in/hr0.0 mm/hr 0.00 in0.0 mm
09:39 AM 19.0°F-7.2°C -0.2°F-17.9°C 42% 6.0 mph NE9.7 kmh NE 12.1 mph19.5 kmh 30.26 in1024.7 mb 0.00 in0.0 mm 0.00 in/hr0.0 mm/hr 0.00 in0.0 mm
09:38 AM 19.0°F-7.2°C -0.2°F-17.9°C 42% 5.4 mph NE8.7 kmh NE 12.1 mph19.5 kmh 30.26 in1024.7 mb 0.00 in0.0 mm 0.00 in/hr0.0 mm/hr 0.00 in0.0 mm
09:37 AM 19.2°F-7.1°C 0.0°F-17.8°C 42% 4.5 mph NE7.2 kmh NE 13.0 mph20.9 kmh 30.26 in1024.7 mb 0.00 in0.0 mm 0.00 in/hr0.0 mm/hr 0.00 in0.0 mm
09:36 AM 18.3°F-7.6°C -0.9°F-18.3°C 42% 3.8 mph NE6.1 kmh NE 13.0 mph20.9 kmh 30.26 in1024.7 mb 0.00 in0.0 mm 0.00 in/hr0.0 mm/hr 0.00 in0.0 mm
09:35 AM 19.2°F-7.1°C 0.0°F-17.8°C 42% 5.4 mph NE8.7 kmh NE 13.0 mph20.9 kmh 30.26 in1024.7 mb 0.00 in0.0 mm 0.00 in/hr0.0 mm/hr 0.00 in0.0 mm
09:34 AM 19.0°F-7.2°C -0.2°F-17.9°C 42% 5.4 mph ENE8.7 kmh ENE 13.0 mph20.9 kmh 30.25 in1024.4 mb 0.00 in0.0 mm 0.00 in/hr0.0 mm/hr 0.00 in0.0 mm
09:33 AM 18.7°F-7.4°C -0.5°F-18.1°C 42% 6.0 mph ENE9.7 kmh ENE 13.0 mph20.9 kmh 30.25 in1024.4 mb 0.00 in0.0 mm 0.00 in/hr0.0 mm/hr 0.00 in0.0 mm
09:32 AM 18.3°F-7.6°C -0.9°F-18.3°C 42% 6.0 mph ENE9.7 kmh ENE 13.0 mph20.9 kmh 30.26 in1024.7 mb 0.00 in0.0 mm 0.00 in/hr0.0 mm/hr 0.00 in0.0 mm
09:31 AM 18.7°F-7.4°C -0.5°F-18.1°C 42% 5.4 mph ENE8.7 kmh ENE 13.0 mph20.9 kmh 30.26 in1024.7 mb 0.00 in0.0 mm 0.00 in/hr0.0 mm/hr 0.00 in0.0 mm
09:30 AM 18.3°F-7.6°C -0.9°F-18.3°C 42% 6.0 mph ENE9.7 kmh ENE 13.0 mph20.9 kmh 30.26 in1024.7 mb 0.00 in0.0 mm 0.00 in/hr0.0 mm/hr 0.00 in0.0 mm
09:29 AM 18.1°F-7.7°C -1.0°F-18.3°C 42% 5.4 mph ENE8.7 kmh ENE 13.0 mph20.9 kmh 30.25 in1024.4 mb 0.00 in0.0 mm 0.00 in/hr0.0 mm/hr 0.00 in0.0 mm
09:28 AM 18.5°F-7.5°C -0.7°F-18.2°C 42% 7.6 mph ENE12.2 kmh ENE 13.0 mph20.9 kmh 30.25 in1024.4 mb 0.00 in0.0 mm 0.00 in/hr0.0 mm/hr 0.00 in0.0 mm
09:27 AM 19.2°F-7.1°C 0.0°F-17.8°C 42% 7.6 mph ENE12.2 kmh ENE 11.4 mph18.3 kmh 30.25 in1024.4 mb 0.00 in0.0 mm 0.00 in/hr0.0 mm/hr 0.00 in0.0 mm
09:26 AM 19.0°F-7.2°C -0.2°F-17.9°C 42% 7.6 mph ENE12.2 kmh ENE 11.4 mph18.3 kmh 30.25 in1024.4 mb 0.00 in0.0 mm 0.00 in/hr0.0 mm/hr 0.00 in0.0 mm
09:25 AM 19.2°F-7.1°C 0.5°F-17.5°C 43% 6.0 mph ENE9.7 kmh ENE 11.4 mph18.3 kmh 30.25 in1024.4 mb 0.00 in0.0 mm 0.00 in/hr0.0 mm/hr 0.00 in0.0 mm
09:24 AM 19.0°F-7.2°C 0.3°F-17.6°C 43% 3.8 mph ENE6.1 kmh ENE 11.4 mph18.3 kmh 30.25 in1024.4 mb 0.00 in0.0 mm 0.00 in/hr0.0 mm/hr 0.00 in0.0 mm
09:23 AM 18.3°F-7.6°C -0.9°F-18.3°C 42% 7.6 mph ENE12.2 kmh ENE 11.4 mph18.3 kmh 30.25 in1024.4 mb 0.00 in0.0 mm 0.00 in/hr0.0 mm/hr 0.00 in0.0 mm
09:22 AM 18.7°F-7.4°C -0.5°F-18.1°C 42% 6.9 mph NE11.1 kmh NE 11.4 mph18.3 kmh 30.25 in1024.4 mb 0.00 in0.0 mm 0.00 in/hr0.0 mm/hr 0.00 in0.0 mm
09:21 AM 19.0°F-7.2°C 0.3°F-17.6°C 43% 8.3 mph NE13.4 kmh NE 11.4 mph18.3 kmh 30.25 in1024.4 mb 0.00 in0.0 mm 0.00 in/hr0.0 mm/hr 0.00 in0.0 mm
09:20 AM 19.0°F-7.2°C -0.2°F-17.9°C 42% 5.4 mph NE8.7 kmh NE 11.4 mph18.3 kmh 30.25 in1024.4 mb 0.00 in0.0 mm 0.00 in/hr0.0 mm/hr 0.00 in0.0 mm
09:19 AM 19.0°F-7.2°C -0.2°F-17.9°C 42% 7.6 mph NE12.2 kmh NE 11.4 mph18.3 kmh 30.25 in1024.4 mb 0.00 in0.0 mm 0.00 in/hr0.0 mm/hr 0.00 in0.0 mm
09:18 AM 19.4°F-7.0°C 3.0°F-16.1°C 48% 6.0 mph NE9.7 kmh NE 11.4 mph18.3 kmh 30.25 in1024.4 mb 0.00 in0.0 mm 0.00 in/hr0.0 mm/hr 0.00 in0.0 mm
09:17 AM 19.8°F-6.8°C 3.3°F-15.9°C 48% 5.4 mph NE8.7 kmh NE 11.4 mph18.3 kmh 30.25 in1024.4 mb 0.00 in0.0 mm 0.00 in/hr0.0 mm/hr 0.00 in0.0 mm
09:16 AM 19.4°F-7.0°C 3.0°F-16.1°C 48% 3.1 mph NE5.0 kmh NE 11.4 mph18.3 kmh 30.25 in1024.4 mb 0.00 in0.0 mm 0.00 in/hr0.0 mm/hr 0.00 in0.0 mm
09:15 AM 18.9°F-7.3°C 0.1°F-17.7°C 43% 3.1 mph NE5.0 kmh NE 13.0 mph20.9 kmh 30.24 in1024.0 mb 0.00 in0.0 mm 0.00 in/hr0.0 mm/hr 0.00 in0.0 mm
09:14 AM 19.2°F-7.1°C 0.5°F-17.5°C 43% 6.0 mph NE9.7 kmh NE 13.0 mph20.9 kmh 30.24 in1024.0 mb 0.00 in0.0 mm 0.00 in/hr0.0 mm/hr 0.00 in0.0 mm
09:13 AM 19.0°F-7.2°C 0.3°F-17.6°C 43% 3.8 mph NE6.1 kmh NE 13.0 mph20.9 kmh 30.24 in1024.0 mb 0.00 in0.0 mm 0.00 in/hr0.0 mm/hr 0.00 in0.0 mm
09:12 AM 18.7°F-7.4°C 0.0°F-17.8°C 43% 5.4 mph NE8.7 kmh NE 13.0 mph20.9 kmh 30.24 in1024.0 mb 0.00 in0.0 mm 0.00 in/hr0.0 mm/hr 0.00 in0.0 mm
09:11 AM 19.0°F-7.2°C 0.3°F-17.6°C 43% 6.9 mph NE11.1 kmh NE 13.0 mph20.9 kmh 30.24 in1024.0 mb 0.00 in0.0 mm 0.00 in/hr0.0 mm/hr 0.00 in0.0 mm
09:10 AM 19.0°F-7.2°C 0.3°F-17.6°C 43% 4.5 mph ENE7.2 kmh ENE 13.0 mph20.9 kmh 30.24 in1024.0 mb 0.00 in0.0 mm 0.00 in/hr0.0 mm/hr 0.00 in0.0 mm
09:09 AM 19.0°F-7.2°C 0.3°F-17.6°C 43% 4.5 mph ENE7.2 kmh ENE 13.0 mph20.9 kmh 30.24 in1024.0 mb 0.00 in0.0 mm 0.00 in/hr0.0 mm/hr 0.00 in0.0 mm
09:08 AM 18.9°F-7.3°C 0.1°F-17.7°C 43% 5.4 mph NE8.7 kmh NE 13.0 mph20.9 kmh 30.24 in1024.0 mb 0.00 in0.0 mm 0.00 in/hr0.0 mm/hr 0.00 in0.0 mm
09:07 AM 19.2°F-7.1°C 0.5°F-17.5°C 43% 6.0 mph ENE9.7 kmh ENE 13.0 mph20.9 kmh 30.24 in1024.0 mb 0.00 in0.0 mm 0.00 in/hr0.0 mm/hr 0.00 in0.0 mm
09:06 AM 18.9°F-7.3°C 0.1°F-17.7°C 43% 7.6 mph ENE12.2 kmh ENE 13.0 mph20.9 kmh 30.24 in1024.0 mb 0.00 in0.0 mm 0.00 in/hr0.0 mm/hr 0.00 in0.0 mm
09:05 AM 18.7°F-7.4°C 0.0°F-17.8°C 43% 5.4 mph ENE8.7 kmh ENE 11.4 mph18.3 kmh 30.23 in1023.7 mb 0.00 in0.0 mm 0.00 in/hr0.0 mm/hr 0.00 in0.0 mm
09:04 AM 18.9°F-7.3°C 1.1°F-17.2°C 45% 5.4 mph ENE8.7 kmh ENE 11.4 mph18.3 kmh 30.23 in1023.7 mb 0.00 in0.0 mm 0.00 in/hr0.0 mm/hr 0.00 in0.0 mm
09:03 AM 18.5°F-7.5°C 0.8°F-17.3°C 45% 4.5 mph ENE7.2 kmh ENE 11.4 mph18.3 kmh 30.23 in1023.7 mb 0.00 in0.0 mm 0.00 in/hr0.0 mm/hr 0.00 in0.0 mm
09:02 AM 18.3°F-7.6°C 0.6°F-17.4°C 45% 6.9 mph ENE11.1 kmh ENE 11.4 mph18.3 kmh 30.23 in1023.7 mb 0.00 in0.0 mm 0.00 in/hr0.0 mm/hr 0.00 in0.0 mm
09:01 AM 18.3°F-7.6°C 1.1°F-17.2°C 46% 6.0 mph ENE9.7 kmh ENE 9.2 mph14.8 kmh 30.23 in1023.7 mb 0.00 in0.0 mm 0.00 in/hr0.0 mm/hr 0.00 in0.0 mm
09:00 AM 18.3°F-7.6°C 1.1°F-17.2°C 46% 6.0 mph ENE9.7 kmh ENE 9.2 mph14.8 kmh 30.23 in1023.7 mb 0.00 in0.0 mm 0.00 in/hr0.0 mm/hr 0.00 in0.0 mm
08:59 AM 18.3°F-7.6°C 1.1°F-17.2°C 46% 6.0 mph ENE9.7 kmh ENE 9.2 mph14.8 kmh 30.23 in1023.7 mb 0.00 in0.0 mm 0.00 in/hr0.0 mm/hr 0.00 in0.0 mm
08:58 AM 18.0°F-7.8°C 0.7°F-17.4°C 46% 5.4 mph ENE8.7 kmh ENE 9.2 mph14.8 kmh 30.23 in1023.7 mb 0.00 in0.0 mm 0.00 in/hr0.0 mm/hr 0.00 in0.0 mm
08:57 AM 18.5°F-7.5°C 1.2°F-17.1°C 46% 5.4 mph ENE8.7 kmh ENE 9.2 mph14.8 kmh 30.23 in1023.7 mb 0.00 in0.0 mm 0.00 in/hr0.0 mm/hr 0.00 in0.0 mm
08:56 AM 18.1°F-7.7°C 0.9°F-17.3°C 46% 1.6 mph ENE2.6 kmh ENE 9.2 mph14.8 kmh 30.24 in1024.0 mb 0.00 in0.0 mm 0.00 in/hr0.0 mm/hr 0.00 in0.0 mm
08:55 AM 18.1°F-7.7°C 0.9°F-17.3°C 46% 3.1 mph ENE5.0 kmh ENE 9.2 mph14.8 kmh 30.23 in1023.7 mb 0.00 in0.0 mm 0.00 in/hr0.0 mm/hr 0.00 in0.0 mm
08:54 AM 18.5°F-7.5°C 1.7°F-16.8°C 47% 3.1 mph ENE5.0 kmh ENE 9.2 mph14.8 kmh 30.23 in1023.7 mb 0.00 in0.0 mm 0.00 in/hr0.0 mm/hr 0.00 in0.0 mm
08:53 AM 18.5°F-7.5°C 1.7°F-16.8°C 47% 4.5 mph ENE7.2 kmh ENE 9.2 mph14.8 kmh 30.23 in1023.7 mb 0.00 in0.0 mm 0.00 in/hr0.0 mm/hr 0.00 in0.0 mm
08:52 AM 18.3°F-7.6°C 1.5°F-16.9°C 47% 2.2 mph ENE3.5 kmh ENE 7.6 mph12.2 kmh 30.23 in1023.7 mb 0.00 in0.0 mm 0.00 in/hr0.0 mm/hr 0.00 in0.0 mm
08:51 AM 18.1°F-7.7°C 0.9°F-17.3°C 46% 1.6 mph ENE2.6 kmh ENE 7.6 mph12.2 kmh 30.23 in1023.7 mb 0.00 in0.0 mm 0.00 in/hr0.0 mm/hr 0.00 in0.0 mm
08:50 AM 18.3°F-7.6°C 1.1°F-17.2°C 46% 5.4 mph ENE8.7 kmh ENE 8.3 mph13.4 kmh 30.23 in1023.7 mb 0.00 in0.0 mm 0.00 in/hr0.0 mm/hr 0.00 in0.0 mm
08:49 AM 18.5°F-7.5°C 1.2°F-17.1°C 46% 6.0 mph E9.7 kmh E 8.3 mph13.4 kmh 30.23 in1023.7 mb 0.00 in0.0 mm 0.00 in/hr0.0 mm/hr 0.00 in0.0 mm
08:48 AM 18.7°F-7.4°C 1.9°F-16.7°C 47% 3.8 mph E6.1 kmh E 8.3 mph13.4 kmh 30.23 in1023.7 mb 0.00 in0.0 mm 0.00 in/hr0.0 mm/hr 0.00 in0.0 mm
08:47 AM 18.5°F-7.5°C 1.7°F-16.8°C 47% 4.5 mph E7.2 kmh E 8.3 mph13.4 kmh 30.23 in1023.7 mb 0.00 in0.0 mm 0.00 in/hr0.0 mm/hr 0.00 in0.0 mm
08:46 AM 19.0°F-7.2°C 2.2°F-16.6°C 47% 3.1 mph E5.0 kmh E 8.3 mph13.4 kmh 30.23 in1023.7 mb 0.00 in0.0 mm 0.00 in/hr0.0 mm/hr 0.00 in0.0 mm
08:45 AM 18.7°F-7.4°C 1.9°F-16.7°C 47% 1.6 mph E2.6 kmh E 8.3 mph13.4 kmh 30.23 in1023.7 mb 0.00 in0.0 mm 0.00 in/hr0.0 mm/hr 0.00 in0.0 mm
08:44 AM 18.3°F-7.6°C 1.5°F-16.9°C 47% 2.2 mph E3.5 kmh E 8.3 mph13.4 kmh 30.23 in1023.7 mb 0.00 in0.0 mm 0.00 in/hr0.0 mm/hr 0.00 in0.0 mm
08:43 AM 17.8°F-7.9°C 1.0°F-17.2°C 47% 2.2 mph E3.5 kmh E 8.3 mph13.4 kmh 30.23 in1023.7 mb 0.00 in0.0 mm 0.00 in/hr0.0 mm/hr 0.00 in0.0 mm
08:42 AM 18.1°F-7.7°C 1.4°F-17.0°C 47% 3.1 mph E5.0 kmh E 8.3 mph13.4 kmh 30.23 in1023.7 mb 0.00 in0.0 mm 0.00 in/hr0.0 mm/hr 0.00 in0.0 mm
08:41 AM 17.8°F-7.9°C 1.0°F-17.2°C 47% 2.2 mph E3.5 kmh E 8.3 mph13.4 kmh 30.23 in1023.7 mb 0.00 in0.0 mm 0.00 in/hr0.0 mm/hr 0.00 in0.0 mm
08:40 AM 18.0°F-7.8°C 1.2°F-17.1°C 47% 3.8 mph E6.1 kmh E 8.3 mph13.4 kmh 30.23 in1023.7 mb 0.00 in0.0 mm 0.00 in/hr0.0 mm/hr 0.00 in0.0 mm
08:39 AM 18.0°F-7.8°C 1.2°F-17.1°C 47% 3.8 mph E6.1 kmh E 8.3 mph13.4 kmh 30.23 in1023.7 mb 0.00 in0.0 mm 0.00 in/hr0.0 mm/hr 0.00 in0.0 mm
08:38 AM 18.1°F-7.7°C 1.4°F-17.0°C 47% 3.8 mph E6.1 kmh E 7.6 mph12.2 kmh 30.23 in1023.7 mb 0.00 in0.0 mm 0.00 in/hr0.0 mm/hr 0.00 in0.0 mm
08:37 AM 18.1°F-7.7°C 1.4°F-17.0°C 47% 3.8 mph E6.1 kmh E 7.6 mph12.2 kmh 30.23 in1023.7 mb 0.00 in0.0 mm 0.00 in/hr0.0 mm/hr 0.00 in0.0 mm
08:36 AM 18.3°F-7.6°C 1.5°F-16.9°C 47% 3.1 mph E5.0 kmh E 7.6 mph12.2 kmh 30.23 in1023.7 mb 0.00 in0.0 mm 0.00 in/hr0.0 mm/hr 0.00 in0.0 mm
08:35 AM 18.1°F-7.7°C 1.8°F-16.8°C 48% 1.6 mph E2.6 kmh E 7.6 mph12.2 kmh 30.23 in1023.7 mb 0.00 in0.0 mm 0.00 in/hr0.0 mm/hr 0.00 in0.0 mm
08:34 AM 18.0°F-7.8°C 1.2°F-17.1°C 47% 3.8 mph ENE6.1 kmh ENE 10.7 mph17.2 kmh 30.23 in1023.7 mb 0.00 in0.0 mm 0.00 in/hr0.0 mm/hr 0.00 in0.0 mm
08:33 AM 17.8°F-7.9°C 1.5°F-16.9°C 48% 3.1 mph ENE5.0 kmh ENE 10.7 mph17.2 kmh 30.22 in1023.4 mb 0.00 in0.0 mm 0.00 in/hr0.0 mm/hr 0.00 in0.0 mm
08:32 AM 18.0°F-7.8°C 1.7°F-16.8°C 48% 4.5 mph E7.2 kmh E 10.7 mph17.2 kmh 30.23 in1023.7 mb 0.00 in0.0 mm 0.00 in/hr0.0 mm/hr 0.00 in0.0 mm
08:31 AM 17.8°F-7.9°C 1.5°F-16.9°C 48% 3.8 mph ENE6.1 kmh ENE 10.7 mph17.2 kmh 30.23 in1023.7 mb 0.00 in0.0 mm 0.00 in/hr0.0 mm/hr 0.00 in0.0 mm
08:30 AM 18.1°F-7.7°C 1.8°F-16.8°C 48% 4.5 mph ENE7.2 kmh ENE 10.7 mph17.2 kmh 30.23 in1023.7 mb 0.00 in0.0 mm 0.00 in/hr0.0 mm/hr 0.00 in0.0 mm
08:29 AM 18.1°F-7.7°C 2.7°F-16.3°C 50% 4.5 mph ENE7.2 kmh ENE 10.7 mph17.2 kmh 30.23 in1023.7 mb 0.00 in0.0 mm 0.00 in/hr0.0 mm/hr 0.00 in0.0 mm
08:28 AM 18.0°F-7.8°C 2.5°F-16.4°C 50% 4.5 mph ENE7.2 kmh ENE 10.7 mph17.2 kmh 30.23 in1023.7 mb 0.00 in0.0 mm 0.00 in/hr0.0 mm/hr 0.00 in0.0 mm
08:27 AM 18.1°F-7.7°C 2.7°F-16.3°C 50% 4.5 mph ENE7.2 kmh ENE 10.7 mph17.2 kmh 30.23 in1023.7 mb 0.00 in0.0 mm 0.00 in/hr0.0 mm/hr 0.00 in0.0 mm
08:26 AM 17.6°F-8.0°C 1.3°F-17.1°C 48% 3.1 mph ENE5.0 kmh ENE 10.7 mph17.2 kmh 30.23 in1023.7 mb 0.00 in0.0 mm 0.00 in/hr0.0 mm/hr 0.00 in0.0 mm
08:25 AM 17.8°F-7.9°C 2.4°F-16.4°C 50% 6.9 mph ENE11.1 kmh ENE 10.7 mph17.2 kmh 30.23 in1023.7 mb 0.00 in0.0 mm 0.00 in/hr0.0 mm/hr 0.00 in0.0 mm
08:24 AM 17.8°F-7.9°C 2.4°F-16.4°C 50% 5.4 mph NE8.7 kmh NE 10.7 mph17.2 kmh 30.23 in1023.7 mb 0.00 in0.0 mm 0.00 in/hr0.0 mm/hr 0.00 in0.0 mm
08:23 AM 17.8°F-7.9°C 2.4°F-16.4°C 50% 6.0 mph ENE9.7 kmh ENE 9.2 mph14.8 kmh 30.23 in1023.7 mb 0.00 in0.0 mm 0.00 in/hr0.0 mm/hr 0.00 in0.0 mm
08:22 AM 17.8°F-7.9°C 2.4°F-16.4°C 50% 5.4 mph ENE8.7 kmh ENE 9.2 mph14.8 kmh 30.22 in1023.4 mb 0.00 in0.0 mm 0.00 in/hr0.0 mm/hr 0.00 in0.0 mm
08:21 AM 18.0°F-7.8°C 2.5°F-16.4°C 50% 6.0 mph E9.7 kmh E 9.2 mph14.8 kmh 30.22 in1023.4 mb 0.00 in0.0 mm 0.00 in/hr0.0 mm/hr 0.00 in0.0 mm
08:20 AM 18.0°F-7.8°C 2.5°F-16.4°C 50% 6.9 mph E11.1 kmh E 9.8 mph15.8 kmh 30.22 in1023.4 mb 0.00 in0.0 mm 0.00 in/hr0.0 mm/hr 0.00 in0.0 mm
08:19 AM 18.1°F-7.7°C 2.7°F-16.3°C 50% 6.0 mph E9.7 kmh E 9.8 mph15.8 kmh 30.22 in1023.4 mb 0.00 in0.0 mm 0.00 in/hr0.0 mm/hr 0.00 in0.0 mm
08:18 AM 18.1°F-7.7°C 2.7°F-16.3°C 50% 5.4 mph E8.7 kmh E 9.8 mph15.8 kmh 30.22 in1023.4 mb 0.00 in0.0 mm 0.00 in/hr0.0 mm/hr 0.00 in0.0 mm
08:17 AM 18.5°F-7.5°C 3.5°F-15.8°C 51% 5.4 mph E8.7 kmh E 9.8 mph15.8 kmh 30.22 in1023.4 mb 0.00 in0.0 mm 0.00 in/hr0.0 mm/hr 0.00 in0.0 mm
08:16 AM 18.3°F-7.6°C 3.3°F-15.9°C 51% 3.8 mph E6.1 kmh E 9.8 mph15.8 kmh 30.22 in1023.4 mb 0.00 in0.0 mm 0.00 in/hr0.0 mm/hr 0.00 in0.0 mm
08:15 AM 18.5°F-7.5°C 3.5°F-15.8°C 51% 4.5 mph E7.2 kmh E 9.8 mph15.8 kmh 30.22 in1023.4 mb 0.00 in0.0 mm 0.00 in/hr0.0 mm/hr 0.00 in0.0 mm
08:14 AM 18.3°F-7.6°C 3.7°F-15.7°C 52% 3.8 mph E6.1 kmh E 9.8 mph15.8 kmh 30.22 in1023.4 mb 0.00 in0.0 mm 0.00 in/hr0.0 mm/hr 0.00 in0.0 mm
08:13 AM 18.7°F-7.4°C 4.0°F-15.6°C 52% 5.4 mph E8.7 kmh E 10.7 mph17.2 kmh 30.21 in1023.0 mb 0.00 in0.0 mm 0.00 in/hr0.0 mm/hr 0.00 in0.0 mm
08:12 AM 18.1°F-7.7°C 3.1°F-16.1°C 51% 3.8 mph E6.1 kmh E 10.7 mph17.2 kmh 30.21 in1023.0 mb 0.00 in0.0 mm 0.00 in/hr0.0 mm/hr 0.00 in0.0 mm
08:11 AM 17.8°F-7.9°C 2.8°F-16.2°C 51% 4.5 mph E7.2 kmh E 10.7 mph17.2 kmh 30.21 in1023.0 mb 0.00 in0.0 mm 0.00 in/hr0.0 mm/hr 0.00 in0.0 mm
08:10 AM 18.5°F-7.5°C 3.9°F-15.6°C 52% 6.0 mph E9.7 kmh E 10.7 mph17.2 kmh 30.21 in1023.0 mb 0.00 in0.0 mm 0.00 in/hr0.0 mm/hr 0.00 in0.0 mm
08:09 AM 18.3°F-7.6°C 4.1°F-15.5°C 53% 3.1 mph E5.0 kmh E 10.7 mph17.2 kmh 30.21 in1023.0 mb 0.00 in0.0 mm 0.00 in/hr0.0 mm/hr 0.00 in0.0 mm
08:08 AM 18.7°F-7.4°C 4.5°F-15.3°C 53% 4.5 mph E7.2 kmh E 10.7 mph17.2 kmh 30.21 in1023.0 mb 0.00 in0.0 mm 0.00 in/hr0.0 mm/hr 0.00 in0.0 mm
08:07 AM 18.3°F-7.6°C 4.1°F-15.5°C 53% 4.5 mph E7.2 kmh E 10.7 mph17.2 kmh 30.21 in1023.0 mb 0.00 in0.0 mm 0.00 in/hr0.0 mm/hr 0.00 in0.0 mm
08:06 AM 18.3°F-7.6°C 4.1°F-15.5°C 53% 3.8 mph E6.1 kmh E 10.7 mph17.2 kmh 30.20 in1022.7 mb 0.00 in0.0 mm 0.00 in/hr0.0 mm/hr 0.00 in0.0 mm
08:05 AM 17.8°F-7.9°C 3.6°F-15.8°C 53% 2.2 mph E3.5 kmh E 10.7 mph17.2 kmh 30.21 in1023.0 mb 0.00 in0.0 mm 0.00 in/hr0.0 mm/hr 0.00 in0.0 mm
08:04 AM 18.1°F-7.7°C 4.0°F-15.6°C 53% 6.0 mph E9.7 kmh E 10.7 mph17.2 kmh 30.20 in1022.7 mb 0.00 in0.0 mm 0.00 in/hr0.0 mm/hr 0.00 in0.0 mm
08:03 AM 18.1°F-7.7°C 4.0°F-15.6°C 53% 5.4 mph E8.7 kmh E 10.7 mph17.2 kmh 30.21 in1023.0 mb 0.00 in0.0 mm 0.00 in/hr0.0 mm/hr 0.00 in0.0 mm
08:02 AM 18.5°F-7.5°C 5.1°F-14.9°C 55% 3.1 mph E5.0 kmh E 9.2 mph14.8 kmh 30.20 in1022.7 mb 0.00 in0.0 mm 0.00 in/hr0.0 mm/hr 0.00 in0.0 mm
08:01 AM 18.3°F-7.6°C 4.9°F-15.1°C 55% 3.1 mph E5.0 kmh E 9.2 mph14.8 kmh 30.20 in1022.7 mb 0.00 in0.0 mm 0.00 in/hr0.0 mm/hr 0.00 in0.0 mm
08:00 AM 18.3°F-7.6°C 4.9°F-15.1°C 55% 4.5 mph E7.2 kmh E 9.2 mph14.8 kmh 30.20 in1022.7 mb 0.00 in0.0 mm 0.00 in/hr0.0 mm/hr 0.00 in0.0 mm
07:59 AM 18.0°F-7.8°C 4.6°F-15.2°C 55% 5.4 mph E8.7 kmh E 9.2 mph14.8 kmh 30.20 in1022.7 mb 0.00 in0.0 mm 0.00 in/hr0.0 mm/hr 0.00 in0.0 mm
07:58 AM 18.0°F-7.8°C 4.6°F-15.2°C 55% 4.5 mph E7.2 kmh E 9.2 mph14.8 kmh 30.20 in1022.7 mb 0.00 in0.0 mm 0.00 in/hr0.0 mm/hr 0.00 in0.0 mm
07:57 AM 18.0°F-7.8°C 4.6°F-15.2°C 55% 4.5 mph E7.2 kmh E 9.2 mph14.8 kmh 30.20 in1022.7 mb 0.00 in0.0 mm 0.00 in/hr0.0 mm/hr 0.00 in0.0 mm
07:56 AM 18.0°F-7.8°C 4.6°F-15.2°C 55% 4.5 mph E7.2 kmh E 9.2 mph14.8 kmh 30.20 in1022.7 mb 0.00 in0.0 mm 0.00 in/hr0.0 mm/hr 0.00 in0.0 mm
07:55 AM 17.6°F-8.0°C 4.6°F-15.2°C 56% 4.5 mph E7.2 kmh E 9.2 mph14.8 kmh 30.20 in1022.7 mb 0.00 in0.0 mm 0.00 in/hr0.0 mm/hr 0.00 in0.0 mm
07:54 AM 18.0°F-7.8°C 5.0°F-15.0°C 56% 4.5 mph E7.2 kmh E 7.6 mph12.2 kmh 30.20 in1022.7 mb 0.00 in0.0 mm 0.00 in/hr0.0 mm/hr 0.00 in0.0 mm
07:53 AM 18.0°F-7.8°C 5.0°F-15.0°C 56% 4.5 mph E7.2 kmh E 7.6 mph12.2 kmh 30.20 in1022.7 mb 0.00 in0.0 mm 0.00 in/hr0.0 mm/hr 0.00 in0.0 mm
07:52 AM 17.8°F-7.9°C 4.8°F-15.1°C 56% 4.5 mph E7.2 kmh E 7.6 mph12.2 kmh 30.20 in1022.7 mb 0.00 in0.0 mm 0.00 in/hr0.0 mm/hr 0.00 in0.0 mm
07:51 AM 18.0°F-7.8°C 5.0°F-15.0°C 56% 5.4 mph E8.7 kmh E 7.6 mph12.2 kmh 30.20 in1022.7 mb 0.00 in0.0 mm 0.00 in/hr0.0 mm/hr 0.00 in0.0 mm
07:50 AM 17.8°F-7.9°C 5.2°F-14.9°C 57% 4.5 mph E7.2 kmh E 7.6 mph12.2 kmh 30.20 in1022.7 mb 0.00 in0.0 mm 0.00 in/hr0.0 mm/hr 0.00 in0.0 mm
07:49 AM 18.0°F-7.8°C 5.4°F-14.8°C 57% 3.8 mph E6.1 kmh E 6.0 mph9.7 kmh 30.20 in1022.7 mb 0.00 in0.0 mm 0.00 in/hr0.0 mm/hr 0.00 in0.0 mm
07:48 AM 18.0°F-7.8°C 5.4°F-14.8°C 57% 3.8 mph E6.1 kmh E 8.3 mph13.4 kmh 30.20 in1022.7 mb 0.00 in0.0 mm 0.00 in/hr0.0 mm/hr 0.00 in0.0 mm
07:47 AM 18.0°F-7.8°C 5.4°F-14.8°C 57% 3.1 mph E5.0 kmh E 8.3 mph13.4 kmh 30.20 in1022.7 mb 0.00 in0.0 mm 0.00 in/hr0.0 mm/hr 0.00 in0.0 mm
07:46 AM 18.1°F-7.7°C 5.9°F-14.5°C 58% 3.1 mph E5.0 kmh E 8.3 mph13.4 kmh 30.20 in1022.7 mb 0.00 in0.0 mm 0.00 in/hr0.0 mm/hr 0.00 in0.0 mm
07:45 AM 18.0°F-7.8°C 5.7°F-14.6°C 58% 1.6 mph ENE2.6 kmh ENE 8.3 mph13.4 kmh 30.19 in1022.4 mb 0.00 in0.0 mm 0.00 in/hr0.0 mm/hr 0.00 in0.0 mm
07:44 AM 17.6°F-8.0°C 5.4°F-14.8°C 58% 0.7 mph ENE1.1 kmh ENE 8.3 mph13.4 kmh 30.19 in1022.4 mb 0.00 in0.0 mm 0.00 in/hr0.0 mm/hr 0.00 in0.0 mm
07:43 AM 17.4°F-8.1°C 6.0°F-14.4°C 60% 3.1 mph ENE5.0 kmh ENE 8.3 mph13.4 kmh 30.19 in1022.4 mb 0.00 in0.0 mm 0.00 in/hr0.0 mm/hr 0.00 in0.0 mm
07:42 AM 17.4°F-8.1°C 6.0°F-14.4°C 60% 4.5 mph ENE7.2 kmh ENE 8.3 mph13.4 kmh 30.19 in1022.4 mb 0.00 in0.0 mm 0.00 in/hr0.0 mm/hr 0.00 in0.0 mm
07:41 AM 17.4°F-8.1°C 6.0°F-14.4°C 60% 3.8 mph E6.1 kmh E 8.3 mph13.4 kmh 30.19 in1022.4 mb 0.00 in0.0 mm 0.00 in/hr0.0 mm/hr 0.00 in0.0 mm
07:40 AM 17.4°F-8.1°C 6.0°F-14.4°C 60% 3.1 mph ENE5.0 kmh ENE 8.3 mph13.4 kmh 30.19 in1022.4 mb 0.00 in0.0 mm 0.00 in/hr0.0 mm/hr 0.00 in0.0 mm
07:39 AM 17.1°F-8.3°C 5.6°F-14.7°C 60% 3.1 mph ENE5.0 kmh ENE 8.3 mph13.4 kmh 30.19 in1022.4 mb 0.00 in0.0 mm 0.00 in/hr0.0 mm/hr 0.00 in0.0 mm
07:38 AM 17.2°F-8.2°C 6.2°F-14.3°C 61% 4.5 mph ENE7.2 kmh ENE 8.3 mph13.4 kmh 30.19 in1022.4 mb 0.00 in0.0 mm 0.00 in/hr0.0 mm/hr 0.00 in0.0 mm
07:37 AM 17.2°F-8.2°C 6.2°F-14.3°C 61% 3.1 mph E5.0 kmh E 8.3 mph13.4 kmh 30.19 in1022.4 mb 0.00 in0.0 mm 0.00 in/hr0.0 mm/hr 0.00 in0.0 mm
07:36 AM 17.1°F-8.3°C 6.0°F-14.4°C 61% 3.1 mph E5.0 kmh E 8.3 mph13.4 kmh 30.19 in1022.4 mb 0.00 in0.0 mm 0.00 in/hr0.0 mm/hr 0.00 in0.0 mm
07:35 AM 17.1°F-8.3°C 6.0°F-14.4°C 61% 5.4 mph E8.7 kmh E 8.3 mph13.4 kmh 30.19 in1022.4 mb 0.00 in0.0 mm 0.00 in/hr0.0 mm/hr 0.00 in0.0 mm
07:34 AM 17.1°F-8.3°C 6.0°F-14.4°C 61% 3.8 mph E6.1 kmh E 8.3 mph13.4 kmh 30.18 in1022.0 mb 0.00 in0.0 mm 0.00 in/hr0.0 mm/hr 0.00 in0.0 mm
07:33 AM 16.9°F-8.4°C 5.8°F-14.6°C 61% 3.8 mph E6.1 kmh E 8.3 mph13.4 kmh 30.18 in1022.0 mb 0.00 in0.0 mm 0.00 in/hr0.0 mm/hr 0.00 in0.0 mm
07:32 AM 16.9°F-8.4°C 6.2°F-14.3°C 62% 4.5 mph E7.2 kmh E 8.3 mph13.4 kmh 30.18 in1022.0 mb 0.00 in0.0 mm 0.00 in/hr0.0 mm/hr 0.00 in0.0 mm
07:31 AM 16.9°F-8.4°C 6.2°F-14.3°C 62% 4.5 mph E7.2 kmh E 8.3 mph13.4 kmh 30.18 in1022.0 mb 0.00 in0.0 mm 0.00 in/hr0.0 mm/hr 0.00 in0.0 mm
07:30 AM 16.9°F-8.4°C 6.5°F-14.2°C 63% 5.4 mph E8.7 kmh E 8.3 mph13.4 kmh 30.18 in1022.0 mb 0.00 in0.0 mm 0.00 in/hr0.0 mm/hr 0.00 in0.0 mm
07:29 AM 16.9°F-8.4°C 6.5°F-14.2°C 63% 3.1 mph ESE5.0 kmh ESE 8.3 mph13.4 kmh 30.18 in1022.0 mb 0.00 in0.0 mm 0.00 in/hr0.0 mm/hr 0.00 in0.0 mm
07:28 AM 16.9°F-8.4°C 6.5°F-14.2°C 63% 3.8 mph ESE6.1 kmh ESE 8.3 mph13.4 kmh 30.18 in1022.0 mb 0.00 in0.0 mm 0.00 in/hr0.0 mm/hr 0.00 in0.0 mm
07:27 AM 17.1°F-8.3°C 7.4°F-13.7°C 65% 4.5 mph ESE7.2 kmh ESE 8.3 mph13.4 kmh 30.18 in1022.0 mb 0.00 in0.0 mm 0.00 in/hr0.0 mm/hr 0.00 in0.0 mm
07:26 AM 17.2°F-8.2°C 7.6°F-13.6°C 65% 3.1 mph ESE5.0 kmh ESE 5.4 mph8.7 kmh 30.18 in1022.0 mb 0.00 in0.0 mm 0.00 in/hr0.0 mm/hr 0.00 in0.0 mm
07:25 AM 17.2°F-8.2°C 7.6°F-13.6°C 65% 1.6 mph ESE2.6 kmh ESE 5.4 mph8.7 kmh 30.18 in1022.0 mb 0.00 in0.0 mm 0.00 in/hr0.0 mm/hr 0.00 in0.0 mm
07:24 AM 17.1°F-8.3°C 7.4°F-13.7°C 65% 1.6 mph E2.6 kmh E 5.4 mph8.7 kmh 30.18 in1022.0 mb 0.00 in0.0 mm 0.00 in/hr0.0 mm/hr 0.00 in0.0 mm
07:23 AM 17.1°F-8.3°C 7.4°F-13.7°C 65% 1.6 mph E2.6 kmh E 6.0 mph9.7 kmh 30.18 in1022.0 mb 0.00 in0.0 mm 0.00 in/hr0.0 mm/hr 0.00 in0.0 mm
07:22 AM 17.1°F-8.3°C 7.4°F-13.7°C 65% 2.2 mph ESE3.5 kmh ESE 6.0 mph9.7 kmh 30.18 in1022.0 mb 0.00 in0.0 mm 0.00 in/hr0.0 mm/hr 0.00 in0.0 mm
07:21 AM 17.1°F-8.3°C 7.4°F-13.7°C 65% 1.6 mph ESE2.6 kmh ESE 6.0 mph9.7 kmh 30.18 in1022.0 mb 0.00 in0.0 mm 0.00 in/hr0.0 mm/hr 0.00 in0.0 mm
07:20 AM 17.1°F-8.3°C 7.7°F-13.5°C 66% 1.6 mph ESE2.6 kmh ESE 6.0 mph9.7 kmh 30.17 in1021.7 mb 0.00 in0.0 mm 0.00 in/hr0.0 mm/hr 0.00 in0.0 mm
07:19 AM 17.1°F-8.3°C 7.7°F-13.5°C 66% 3.1 mph ESE5.0 kmh ESE 6.0 mph9.7 kmh 30.17 in1021.7 mb 0.00 in0.0 mm 0.00 in/hr0.0 mm/hr 0.00 in0.0 mm
07:18 AM 17.1°F-8.3°C 7.7°F-13.5°C 66% 2.2 mph E3.5 kmh E 6.0 mph9.7 kmh 30.17 in1021.7 mb 0.00 in0.0 mm 0.00 in/hr0.0 mm/hr 0.00 in0.0 mm
07:17 AM 17.1°F-8.3°C 7.7°F-13.5°C 66% 2.2 mph E3.5 kmh E 6.0 mph9.7 kmh 30.17 in1021.7 mb 0.00 in0.0 mm 0.00 in/hr0.0 mm/hr 0.00 in0.0 mm
07:16 AM 17.1°F-8.3°C 7.7°F-13.5°C 66% 2.2 mph E3.5 kmh E 6.0 mph9.7 kmh 30.17 in1021.7 mb 0.00 in0.0 mm 0.00 in/hr0.0 mm/hr 0.00 in0.0 mm
07:15 AM 17.1°F-8.3°C 7.7°F-13.5°C 66% 3.1 mph E5.0 kmh E 6.0 mph9.7 kmh 30.17 in1021.7 mb 0.00 in0.0 mm 0.00 in/hr0.0 mm/hr 0.00 in0.0 mm
07:14 AM 17.1°F-8.3°C 7.7°F-13.5°C 66% 3.1 mph E5.0 kmh E 6.0 mph9.7 kmh 30.17 in1021.7 mb 0.00 in0.0 mm 0.00 in/hr0.0 mm/hr 0.00 in0.0 mm
07:13 AM 17.1°F-8.3°C 7.7°F-13.5°C 66% 3.1 mph E5.0 kmh E 6.0 mph9.7 kmh 30.17 in1021.7 mb 0.00 in0.0 mm 0.00 in/hr0.0 mm/hr 0.00 in0.0 mm
07:12 AM 17.1°F-8.3°C 7.7°F-13.5°C 66% 2.2 mph E3.5 kmh E 6.0 mph9.7 kmh 30.17 in1021.7 mb 0.00 in0.0 mm 0.00 in/hr0.0 mm/hr 0.00 in0.0 mm
07:11 AM 17.1°F-8.3°C 8.1°F-13.3°C 67% 3.8 mph E6.1 kmh E 6.0 mph9.7 kmh 30.17 in1021.7 mb 0.00 in0.0 mm 0.00 in/hr0.0 mm/hr 0.00 in0.0 mm
07:10 AM 17.1°F-8.3°C 8.1°F-13.3°C 67% 3.1 mph E5.0 kmh E 5.4 mph8.7 kmh 30.17 in1021.7 mb 0.00 in0.0 mm 0.00 in/hr0.0 mm/hr 0.00 in0.0 mm
07:09 AM 16.9°F-8.4°C 7.9°F-13.4°C 67% 3.1 mph ENE5.0 kmh ENE 5.4 mph8.7 kmh 30.17 in1021.7 mb 0.00 in0.0 mm 0.00 in/hr0.0 mm/hr 0.00 in0.0 mm
07:08 AM 17.1°F-8.3°C 8.1°F-13.3°C 67% 3.8 mph E6.1 kmh E 5.4 mph8.7 kmh 30.17 in1021.7 mb 0.00 in0.0 mm 0.00 in/hr0.0 mm/hr 0.00 in0.0 mm
07:07 AM 17.1°F-8.3°C 8.1°F-13.3°C 67% 2.2 mph ENE3.5 kmh ENE 6.9 mph11.1 kmh 30.17 in1021.7 mb 0.00 in0.0 mm 0.00 in/hr0.0 mm/hr 0.00 in0.0 mm
07:06 AM 17.1°F-8.3°C 8.1°F-13.3°C 67% 2.2 mph ENE3.5 kmh ENE 6.9 mph11.1 kmh 30.17 in1021.7 mb 0.00 in0.0 mm 0.00 in/hr0.0 mm/hr 0.00 in0.0 mm
07:05 AM 17.1°F-8.3°C 8.1°F-13.3°C 67% 2.2 mph ENE3.5 kmh ENE 6.9 mph11.1 kmh 30.17 in1021.7 mb 0.00 in0.0 mm 0.00 in/hr0.0 mm/hr 0.00 in0.0 mm
07:04 AM 17.1°F-8.3°C 8.1°F-13.3°C 67% 2.2 mph E3.5 kmh E 6.9 mph11.1 kmh 30.16 in1021.3 mb 0.00 in0.0 mm 0.00 in/hr0.0 mm/hr 0.00 in0.0 mm
07:03 AM 17.1°F-8.3°C 8.1°F-13.3°C 67% 2.2 mph E3.5 kmh E 6.9 mph11.1 kmh 30.16 in1021.3 mb 0.00 in0.0 mm 0.00 in/hr0.0 mm/hr 0.00 in0.0 mm
07:02 AM 17.1°F-8.3°C 8.1°F-13.3°C 67% 2.2 mph E3.5 kmh E 6.9 mph11.1 kmh 30.16 in1021.3 mb 0.00 in0.0 mm 0.00 in/hr0.0 mm/hr 0.00 in0.0 mm
07:01 AM 17.1°F-8.3°C 8.1°F-13.3°C 67% 2.2 mph ENE3.5 kmh ENE 6.9 mph11.1 kmh 30.16 in1021.3 mb 0.00 in0.0 mm 0.00 in/hr0.0 mm/hr 0.00 in0.0 mm
07:00 AM 17.1°F-8.3°C 8.1°F-13.3°C 67% 2.2 mph ENE3.5 kmh ENE 6.9 mph11.1 kmh 30.16 in1021.3 mb 0.00 in0.0 mm 0.00 in/hr0.0 mm/hr 0.00 in0.0 mm
06:59 AM 17.1°F-8.3°C 8.4°F-13.1°C 68% 2.2 mph ENE3.5 kmh ENE 6.9 mph11.1 kmh 30.16 in1021.3 mb 0.00 in0.0 mm 0.00 in/hr0.0 mm/hr 0.00 in0.0 mm
06:58 AM 17.2°F-8.2°C 8.6°F-13.0°C 68% 3.8 mph NE6.1 kmh NE 6.9 mph11.1 kmh 30.16 in1021.3 mb 0.00 in0.0 mm 0.00 in/hr0.0 mm/hr 0.00 in0.0 mm
06:57 AM 17.2°F-8.2°C 8.6°F-13.0°C 68% 1.6 mph ENE2.6 kmh ENE 7.6 mph12.2 kmh 30.16 in1021.3 mb 0.00 in0.0 mm 0.00 in/hr0.0 mm/hr 0.00 in0.0 mm
06:56 AM 17.1°F-8.3°C 8.4°F-13.1°C 68% 1.6 mph ENE2.6 kmh ENE 7.6 mph12.2 kmh 30.16 in1021.3 mb 0.00 in0.0 mm 0.00 in/hr0.0 mm/hr 0.00 in0.0 mm
06:55 AM 17.2°F-8.2°C 8.6°F-13.0°C 68% 2.2 mph ENE3.5 kmh ENE 7.6 mph12.2 kmh 30.16 in1021.3 mb 0.00 in0.0 mm 0.00 in/hr0.0 mm/hr 0.00 in0.0 mm
06:54 AM 17.2°F-8.2°C 8.6°F-13.0°C 68% 3.1 mph ENE5.0 kmh ENE 7.6 mph12.2 kmh 30.16 in1021.3 mb 0.00 in0.0 mm 0.00 in/hr0.0 mm/hr 0.00 in0.0 mm
06:53 AM 17.2°F-8.2°C 8.6°F-13.0°C 68% 3.8 mph ENE6.1 kmh ENE 7.6 mph12.2 kmh 30.16 in1021.3 mb 0.00 in0.0 mm 0.00 in/hr0.0 mm/hr 0.00 in0.0 mm
06:52 AM 17.2°F-8.2°C 8.6°F-13.0°C 68% 2.2 mph ENE3.5 kmh ENE 7.6 mph12.2 kmh 30.16 in1021.3 mb 0.00 in0.0 mm 0.00 in/hr0.0 mm/hr 0.00 in0.0 mm
06:51 AM 17.4°F-8.1°C 8.7°F-12.9°C 68% 3.8 mph E6.1 kmh E 7.6 mph12.2 kmh 30.16 in1021.3 mb 0.00 in0.0 mm 0.00 in/hr0.0 mm/hr 0.00 in0.0 mm
06:50 AM 17.2°F-8.2°C 8.6°F-13.0°C 68% 2.2 mph E3.5 kmh E 7.6 mph12.2 kmh 30.16 in1021.3 mb 0.00 in0.0 mm 0.00 in/hr0.0 mm/hr 0.00 in0.0 mm
06:49 AM 17.4°F-8.1°C 8.7°F-12.9°C 68% 3.8 mph ENE6.1 kmh ENE 7.6 mph12.2 kmh 30.16 in1021.3 mb 0.00 in0.0 mm 0.00 in/hr0.0 mm/hr 0.00 in0.0 mm
06:48 AM 17.4°F-8.1°C 8.7°F-12.9°C 68% 2.2 mph E3.5 kmh E 7.6 mph12.2 kmh 30.16 in1021.3 mb 0.00 in0.0 mm 0.00 in/hr0.0 mm/hr 0.00 in0.0 mm
06:47 AM 17.4°F-8.1°C 8.7°F-12.9°C 68% 3.1 mph ENE5.0 kmh ENE 6.0 mph9.7 kmh 30.16 in1021.3 mb 0.00 in0.0 mm 0.00 in/hr0.0 mm/hr 0.00 in0.0 mm
06:46 AM 17.6°F-8.0°C 8.6°F-13.0°C 67% 3.1 mph ENE5.0 kmh ENE 6.0 mph9.7 kmh 30.16 in1021.3 mb 0.00 in0.0 mm 0.00 in/hr0.0 mm/hr 0.00 in0.0 mm
06:45 AM 17.6°F-8.0°C 8.2°F-13.2°C 66% 2.2 mph ENE3.5 kmh ENE 6.0 mph9.7 kmh 30.16 in1021.3 mb 0.00 in0.0 mm 0.00 in/hr0.0 mm/hr 0.00 in0.0 mm
06:44 AM 17.6°F-8.0°C 8.2°F-13.2°C 66% 3.1 mph ENE5.0 kmh ENE 6.0 mph9.7 kmh 30.16 in1021.3 mb 0.00 in0.0 mm 0.00 in/hr0.0 mm/hr 0.00 in0.0 mm
06:43 AM 17.4°F-8.1°C 8.4°F-13.1°C 67% 3.1 mph ENE5.0 kmh ENE 6.0 mph9.7 kmh 30.16 in1021.3 mb 0.00 in0.0 mm 0.00 in/hr0.0 mm/hr 0.00 in0.0 mm
06:42 AM 17.6°F-8.0°C 8.2°F-13.2°C 66% 3.8 mph ENE6.1 kmh ENE 9.8 mph15.8 kmh 30.16 in1021.3 mb 0.00 in0.0 mm 0.00 in/hr0.0 mm/hr 0.00 in0.0 mm
06:41 AM 17.6°F-8.0°C 8.2°F-13.2°C 66% 3.1 mph ENE5.0 kmh ENE 9.8 mph15.8 kmh 30.16 in1021.3 mb 0.00 in0.0 mm 0.00 in/hr0.0 mm/hr 0.00 in0.0 mm
06:40 AM 17.8°F-7.9°C 8.4°F-13.1°C 66% 4.5 mph E7.2 kmh E 9.8 mph15.8 kmh 30.16 in1021.3 mb 0.00 in0.0 mm 0.00 in/hr0.0 mm/hr 0.00 in0.0 mm
06:39 AM 17.6°F-8.0°C 8.2°F-13.2°C 66% 3.8 mph E6.1 kmh E 9.8 mph15.8 kmh 30.16 in1021.3 mb 0.00 in0.0 mm 0.00 in/hr0.0 mm/hr 0.00 in0.0 mm
06:38 AM 17.6°F-8.0°C 8.2°F-13.2°C 66% 3.8 mph E6.1 kmh E 9.8 mph15.8 kmh 30.16 in1021.3 mb 0.00 in0.0 mm 0.00 in/hr0.0 mm/hr 0.00 in0.0 mm
06:37 AM 17.6°F-8.0°C 8.2°F-13.2°C 66% 1.6 mph E2.6 kmh E 9.8 mph15.8 kmh 30.16 in1021.3 mb 0.00 in0.0 mm 0.00 in/hr0.0 mm/hr 0.00 in0.0 mm
06:36 AM 17.6°F-8.0°C 8.2°F-13.2°C 66% 2.2 mph ESE3.5 kmh ESE 9.8 mph15.8 kmh 30.16 in1021.3 mb 0.00 in0.0 mm 0.00 in/hr0.0 mm/hr 0.00 in0.0 mm
06:35 AM 17.6°F-8.0°C 8.2°F-13.2°C 66% 2.2 mph E3.5 kmh E 9.8 mph15.8 kmh 30.16 in1021.3 mb 0.00 in0.0 mm 0.00 in/hr0.0 mm/hr 0.00 in0.0 mm
06:34 AM 17.6°F-8.0°C 8.2°F-13.2°C 66% 3.1 mph E5.0 kmh E 9.8 mph15.8 kmh 30.16 in1021.3 mb 0.00 in0.0 mm 0.00 in/hr0.0 mm/hr 0.00 in0.0 mm
06:33 AM 17.6°F-8.0°C 8.2°F-13.2°C 66% 3.8 mph ESE6.1 kmh ESE 9.8 mph15.8 kmh 30.16 in1021.3 mb 0.00 in0.0 mm 0.00 in/hr0.0 mm/hr 0.00 in0.0 mm
06:32 AM 17.6°F-8.0°C 7.9°F-13.4°C 65% 5.4 mph ESE8.7 kmh ESE 9.8 mph15.8 kmh 30.16 in1021.3 mb 0.00 in0.0 mm 0.00 in/hr0.0 mm/hr 0.00 in0.0 mm
06:31 AM 17.6°F-8.0°C 8.2°F-13.2°C 66% 6.0 mph ESE9.7 kmh ESE 9.2 mph14.8 kmh 30.16 in1021.3 mb 0.00 in0.0 mm 0.00 in/hr0.0 mm/hr 0.00 in0.0 mm
06:30 AM 17.8°F-7.9°C 8.4°F-13.1°C 66% 4.5 mph ESE7.2 kmh ESE 9.2 mph14.8 kmh 30.16 in1021.3 mb 0.00 in0.0 mm 0.00 in/hr0.0 mm/hr 0.00 in0.0 mm
06:29 AM 17.8°F-7.9°C 8.4°F-13.1°C 66% 5.4 mph ESE8.7 kmh ESE 8.3 mph13.4 kmh 30.16 in1021.3 mb 0.00 in0.0 mm 0.00 in/hr0.0 mm/hr 0.00 in0.0 mm
06:28 AM 17.6°F-8.0°C 8.2°F-13.2°C 66% 3.1 mph ESE5.0 kmh ESE 8.3 mph13.4 kmh 30.16 in1021.3 mb 0.00 in0.0 mm 0.00 in/hr0.0 mm/hr 0.00 in0.0 mm
06:27 AM 17.8°F-7.9°C 8.4°F-13.1°C 66% 3.8 mph E6.1 kmh E 7.6 mph12.2 kmh 30.16 in1021.3 mb 0.00 in0.0 mm 0.00 in/hr0.0 mm/hr 0.00 in0.0 mm
06:26 AM 17.8°F-7.9°C 8.4°F-13.1°C 66% 3.1 mph E5.0 kmh E 7.6 mph12.2 kmh 30.16 in1021.3 mb 0.00 in0.0 mm 0.00 in/hr0.0 mm/hr 0.00 in0.0 mm
06:25 AM 17.8°F-7.9°C 8.4°F-13.1°C 66% 6.9 mph E11.1 kmh E 7.6 mph12.2 kmh 30.16 in1021.3 mb 0.00 in0.0 mm 0.00 in/hr0.0 mm/hr 0.00 in0.0 mm
06:24 AM 17.8°F-7.9°C 8.4°F-13.1°C 66% 3.1 mph E5.0 kmh E 7.6 mph12.2 kmh 30.15 in1021.0 mb 0.00 in0.0 mm 0.00 in/hr0.0 mm/hr 0.00 in0.0 mm
06:23 AM 17.8°F-7.9°C 8.4°F-13.1°C 66% 3.8 mph E6.1 kmh E 9.2 mph14.8 kmh 30.15 in1021.0 mb 0.00 in0.0 mm 0.00 in/hr0.0 mm/hr 0.00 in0.0 mm
06:22 AM 17.8°F-7.9°C 8.4°F-13.1°C 66% 3.8 mph E6.1 kmh E 9.2 mph14.8 kmh 30.15 in1021.0 mb 0.00 in0.0 mm 0.00 in/hr0.0 mm/hr 0.00 in0.0 mm
06:21 AM 17.8°F-7.9°C 8.4°F-13.1°C 66% 3.8 mph E6.1 kmh E 9.2 mph14.8 kmh 30.15 in1021.0 mb 0.00 in0.0 mm 0.00 in/hr0.0 mm/hr 0.00 in0.0 mm
06:20 AM 17.8°F-7.9°C 8.4°F-13.1°C 66% 3.8 mph E6.1 kmh E 9.2 mph14.8 kmh 30.15 in1021.0 mb 0.00 in0.0 mm 0.00 in/hr0.0 mm/hr 0.00 in0.0 mm
06:19 AM 18.0°F-7.8°C 8.6°F-13.0°C 66% 3.8 mph E6.1 kmh E 9.2 mph14.8 kmh 30.15 in1021.0 mb 0.00 in0.0 mm 0.00 in/hr0.0 mm/hr 0.00 in0.0 mm
06:18 AM 18.0°F-7.8°C 8.6°F-13.0°C 66% 3.8 mph E6.1 kmh E 9.2 mph14.8 kmh 30.15 in1021.0 mb 0.00 in0.0 mm 0.00 in/hr0.0 mm/hr 0.00 in0.0 mm
06:17 AM 18.0°F-7.8°C 8.6°F-13.0°C 66% 3.8 mph E6.1 kmh E 9.2 mph14.8 kmh 30.15 in1021.0 mb 0.00 in0.0 mm 0.00 in/hr0.0 mm/hr 0.00 in0.0 mm
06:16 AM 18.0°F-7.8°C 8.6°F-13.0°C 66% 3.1 mph E5.0 kmh E 9.2 mph14.8 kmh 30.15 in1021.0 mb 0.00 in0.0 mm 0.00 in/hr0.0 mm/hr 0.00 in0.0 mm
06:15 AM 18.0°F-7.8°C 8.6°F-13.0°C 66% 3.1 mph E5.0 kmh E 9.2 mph14.8 kmh 30.15 in1021.0 mb 0.00 in0.0 mm 0.00 in/hr0.0 mm/hr 0.00 in0.0 mm
06:14 AM 18.0°F-7.8°C 8.2°F-13.2°C 65% 5.4 mph E8.7 kmh E 9.2 mph14.8 kmh 30.14 in1020.7 mb 0.00 in0.0 mm 0.00 in/hr0.0 mm/hr 0.00 in0.0 mm
06:13 AM 18.0°F-7.8°C 8.2°F-13.2°C 65% 4.5 mph E7.2 kmh E 9.2 mph14.8 kmh 30.14 in1020.7 mb 0.00 in0.0 mm 0.00 in/hr0.0 mm/hr 0.00 in0.0 mm
06:12 AM 18.0°F-7.8°C 8.2°F-13.2°C 65% 3.8 mph E6.1 kmh E 9.8 mph15.8 kmh 30.14 in1020.7 mb 0.00 in0.0 mm 0.00 in/hr0.0 mm/hr 0.00 in0.0 mm
06:11 AM 18.0°F-7.8°C 8.2°F-13.2°C 65% 5.4 mph E8.7 kmh E 9.8 mph15.8 kmh 30.14 in1020.7 mb 0.00 in0.0 mm 0.00 in/hr0.0 mm/hr 0.00 in0.0 mm
06:10 AM 18.0°F-7.8°C 8.2°F-13.2°C 65% 3.8 mph E6.1 kmh E 9.8 mph15.8 kmh 30.14 in1020.7 mb 0.00 in0.0 mm 0.00 in/hr0.0 mm/hr 0.00 in0.0 mm
06:09 AM 18.0°F-7.8°C 8.2°F-13.2°C 65% 5.4 mph E8.7 kmh E 9.8 mph15.8 kmh 30.14 in1020.7 mb 0.00 in0.0 mm 0.00 in/hr0.0 mm/hr 0.00 in0.0 mm
06:08 AM 18.1°F-7.7°C 8.4°F-13.1°C 65% 6.0 mph E9.7 kmh E 9.8 mph15.8 kmh 30.14 in1020.7 mb 0.00 in0.0 mm 0.00 in/hr0.0 mm/hr 0.00 in0.0 mm
06:07 AM 18.3°F-7.6°C 7.9°F-13.4°C 63% 3.1 mph E5.0 kmh E 9.8 mph15.8 kmh 30.14 in1020.7 mb 0.00 in0.0 mm 0.00 in/hr0.0 mm/hr 0.00 in0.0 mm
06:06 AM 18.3°F-7.6°C 7.9°F-13.4°C 63% 3.8 mph E6.1 kmh E 9.8 mph15.8 kmh 30.14 in1020.7 mb 0.00 in0.0 mm 0.00 in/hr0.0 mm/hr 0.00 in0.0 mm
06:05 AM 18.1°F-7.7°C 7.7°F-13.5°C 63% 4.5 mph E7.2 kmh E 9.8 mph15.8 kmh 30.14 in1020.7 mb 0.00 in0.0 mm 0.00 in/hr0.0 mm/hr 0.00 in0.0 mm
06:04 AM 18.3°F-7.6°C 7.9°F-13.4°C 63% 5.4 mph E8.7 kmh E 9.8 mph15.8 kmh 30.14 in1020.7 mb 0.00 in0.0 mm 0.00 in/hr0.0 mm/hr 0.00 in0.0 mm
06:03 AM 18.3°F-7.6°C 7.5°F-13.6°C 62% 6.0 mph E9.7 kmh E 9.8 mph15.8 kmh 30.14 in1020.7 mb 0.00 in0.0 mm 0.00 in/hr0.0 mm/hr 0.00 in0.0 mm
06:02 AM 18.3°F-7.6°C 7.5°F-13.6°C 62% 4.5 mph E7.2 kmh E 9.8 mph15.8 kmh 30.14 in1020.7 mb 0.00 in0.0 mm 0.00 in/hr0.0 mm/hr 0.00 in0.0 mm
06:01 AM 18.5°F-7.5°C 7.7°F-13.5°C 62% 5.4 mph E8.7 kmh E 9.8 mph15.8 kmh 30.14 in1020.7 mb 0.00 in0.0 mm 0.00 in/hr0.0 mm/hr 0.00 in0.0 mm
06:00 AM 18.5°F-7.5°C 7.7°F-13.5°C 62% 3.8 mph E6.1 kmh E 8.3 mph13.4 kmh 30.14 in1020.7 mb 0.00 in0.0 mm 0.00 in/hr0.0 mm/hr 0.00 in0.0 mm
05:59 AM 18.5°F-7.5°C 7.7°F-13.5°C 62% 4.5 mph E7.2 kmh E 9.2 mph14.8 kmh 30.14 in1020.7 mb 0.00 in0.0 mm 0.00 in/hr0.0 mm/hr 0.00 in0.0 mm
05:58 AM 18.5°F-7.5°C 7.4°F-13.7°C 61% 4.5 mph E7.2 kmh E 9.2 mph14.8 kmh 30.14 in1020.7 mb 0.00 in0.0 mm 0.00 in/hr0.0 mm/hr 0.00 in0.0 mm
05:57 AM 18.7°F-7.4°C 7.5°F-13.6°C 61% 4.5 mph E7.2 kmh E 9.2 mph14.8 kmh 30.13 in1020.3 mb 0.00 in0.0 mm 0.00 in/hr0.0 mm/hr 0.00 in0.0 mm
05:56 AM 18.7°F-7.4°C 7.5°F-13.6°C 61% 3.1 mph E5.0 kmh E 9.2 mph14.8 kmh 30.14 in1020.7 mb 0.00 in0.0 mm 0.00 in/hr0.0 mm/hr 0.00 in0.0 mm
05:55 AM 18.7°F-7.4°C 7.5°F-13.6°C 61% 2.2 mph E3.5 kmh E 9.2 mph14.8 kmh 30.14 in1020.7 mb 0.00 in0.0 mm 0.00 in/hr0.0 mm/hr 0.00 in0.0 mm
05:54 AM 18.9°F-7.3°C 7.7°F-13.5°C 61% 4.5 mph E7.2 kmh E 9.2 mph14.8 kmh 30.14 in1020.7 mb 0.00 in0.0 mm 0.00 in/hr0.0 mm/hr 0.00 in0.0 mm
05:53 AM 18.7°F-7.4°C 7.5°F-13.6°C 61% 3.1 mph E5.0 kmh E 9.2 mph14.8 kmh 30.13 in1020.3 mb 0.00 in0.0 mm 0.00 in/hr0.0 mm/hr 0.00 in0.0 mm
05:52 AM 18.7°F-7.4°C 7.2°F-13.8°C 60% 4.5 mph E7.2 kmh E 9.2 mph14.8 kmh 30.14 in1020.7 mb 0.00 in0.0 mm 0.00 in/hr0.0 mm/hr 0.00 in0.0 mm
05:51 AM 18.7°F-7.4°C 7.2°F-13.8°C 60% 5.4 mph E8.7 kmh E 9.2 mph14.8 kmh 30.13 in1020.3 mb 0.00 in0.0 mm 0.00 in/hr0.0 mm/hr 0.00 in0.0 mm
05:50 AM 18.7°F-7.4°C 7.2°F-13.8°C 60% 3.8 mph E6.1 kmh E 9.2 mph14.8 kmh 30.14 in1020.7 mb 0.00 in0.0 mm 0.00 in/hr0.0 mm/hr 0.00 in0.0 mm
05:49 AM 18.7°F-7.4°C 7.2°F-13.8°C 60% 4.5 mph E7.2 kmh E 7.6 mph12.2 kmh 30.13 in1020.3 mb 0.00 in0.0 mm 0.00 in/hr0.0 mm/hr 0.00 in0.0 mm
05:48 AM 18.7°F-7.4°C 7.2°F-13.8°C 60% 4.5 mph E7.2 kmh E 7.6 mph12.2 kmh 30.13 in1020.3 mb 0.00 in0.0 mm 0.00 in/hr0.0 mm/hr 0.00 in0.0 mm
05:47 AM 18.9°F-7.3°C 6.6°F-14.1°C 58% 3.8 mph E6.1 kmh E 8.3 mph13.4 kmh 30.13 in1020.3 mb 0.00 in0.0 mm 0.00 in/hr0.0 mm/hr 0.00 in0.0 mm
05:46 AM 18.9°F-7.3°C 6.6°F-14.1°C 58% 3.8 mph E6.1 kmh E 8.3 mph13.4 kmh 30.13 in1020.3 mb 0.00 in0.0 mm 0.00 in/hr0.0 mm/hr 0.00 in0.0 mm
05:45 AM 18.9°F-7.3°C 6.6°F-14.1°C 58% 3.8 mph E6.1 kmh E 8.3 mph13.4 kmh 30.13 in1020.3 mb 0.00 in0.0 mm 0.00 in/hr0.0 mm/hr 0.00 in0.0 mm
05:44 AM 18.9°F-7.3°C 6.6°F-14.1°C 58% 3.8 mph E6.1 kmh E 8.3 mph13.4 kmh 30.13 in1020.3 mb 0.00 in0.0 mm 0.00 in/hr0.0 mm/hr 0.00 in0.0 mm
05:43 AM 19.0°F-7.2°C 6.8°F-14.0°C 58% 3.8 mph E6.1 kmh E 8.3 mph13.4 kmh 30.13 in1020.3 mb 0.00 in0.0 mm 0.00 in/hr0.0 mm/hr 0.00 in0.0 mm
05:42 AM 19.0°F-7.2°C 6.8°F-14.0°C 58% 3.8 mph ENE6.1 kmh ENE 11.4 mph18.3 kmh 30.13 in1020.3 mb 0.00 in0.0 mm 0.00 in/hr0.0 mm/hr 0.00 in0.0 mm
05:41 AM 19.0°F-7.2°C 6.8°F-14.0°C 58% 3.8 mph E6.1 kmh E 11.4 mph18.3 kmh 30.13 in1020.3 mb 0.00 in0.0 mm 0.00 in/hr0.0 mm/hr 0.00 in0.0 mm
05:40 AM 18.9°F-7.3°C 6.6°F-14.1°C 58% 3.8 mph E6.1 kmh E 11.4 mph18.3 kmh 30.13 in1020.3 mb 0.00 in0.0 mm 0.00 in/hr0.0 mm/hr 0.00 in0.0 mm
05:39 AM 19.0°F-7.2°C 6.8°F-14.0°C 58% 4.5 mph E7.2 kmh E 11.4 mph18.3 kmh 30.13 in1020.3 mb 0.00 in0.0 mm 0.00 in/hr0.0 mm/hr 0.00 in0.0 mm
05:38 AM 19.0°F-7.2°C 6.8°F-14.0°C 58% 4.5 mph E7.2 kmh E 11.4 mph18.3 kmh 30.13 in1020.3 mb 0.00 in0.0 mm 0.00 in/hr0.0 mm/hr 0.00 in0.0 mm
05:37 AM 19.0°F-7.2°C 6.4°F-14.2°C 57% 3.1 mph E5.0 kmh E 11.4 mph18.3 kmh 30.13 in1020.3 mb 0.00 in0.0 mm 0.00 in/hr0.0 mm/hr 0.00 in0.0 mm
05:36 AM 19.0°F-7.2°C 6.4°F-14.2°C 57% 3.1 mph E5.0 kmh E 11.4 mph18.3 kmh 30.13 in1020.3 mb 0.00 in0.0 mm 0.00 in/hr0.0 mm/hr 0.00 in0.0 mm
05:35 AM 19.0°F-7.2°C 6.4°F-14.2°C 57% 3.8 mph E6.1 kmh E 11.4 mph18.3 kmh 30.13 in1020.3 mb 0.00 in0.0 mm 0.00 in/hr0.0 mm/hr 0.00 in0.0 mm
05:34 AM 19.0°F-7.2°C 6.4°F-14.2°C 57% 3.8 mph E6.1 kmh E 11.4 mph18.3 kmh 30.13 in1020.3 mb 0.00 in0.0 mm 0.00 in/hr0.0 mm/hr 0.00 in0.0 mm
05:33 AM 19.0°F-7.2°C 6.4°F-14.2°C 57% 3.1 mph E5.0 kmh E 11.4 mph18.3 kmh 30.13 in1020.3 mb 0.00 in0.0 mm 0.00 in/hr0.0 mm/hr 0.00 in0.0 mm
05:32 AM 19.0°F-7.2°C 6.4°F-14.2°C 57% 6.0 mph E9.7 kmh E 11.4 mph18.3 kmh 30.13 in1020.3 mb 0.00 in0.0 mm 0.00 in/hr0.0 mm/hr 0.00 in0.0 mm
05:31 AM 19.0°F-7.2°C 6.4°F-14.2°C 57% 4.5 mph E7.2 kmh E 9.2 mph14.8 kmh 30.13 in1020.3 mb 0.00 in0.0 mm 0.00 in/hr0.0 mm/hr 0.00 in0.0 mm
05:30 AM 19.2°F-7.1°C 6.5°F-14.2°C 57% 4.5 mph E7.2 kmh E 9.2 mph14.8 kmh 30.13 in1020.3 mb 0.00 in0.0 mm 0.00 in/hr0.0 mm/hr 0.00 in0.0 mm
05:29 AM 19.2°F-7.1°C 6.5°F-14.2°C 57% 4.5 mph E7.2 kmh E 9.2 mph14.8 kmh 30.12 in1020.0 mb 0.00 in0.0 mm 0.00 in/hr0.0 mm/hr 0.00 in0.0 mm
05:28 AM 19.2°F-7.1°C 6.5°F-14.2°C 57% 6.0 mph E9.7 kmh E 9.2 mph14.8 kmh 30.12 in1020.0 mb 0.00 in0.0 mm 0.00 in/hr0.0 mm/hr 0.00 in0.0 mm
05:27 AM 19.4°F-7.0°C 8.9°F-12.8°C 63% 5.4 mph E8.7 kmh E 9.2 mph14.8 kmh 30.12 in1020.0 mb 0.00 in0.0 mm 0.00 in/hr0.0 mm/hr 0.00 in0.0 mm
05:26 AM 19.6°F-6.9°C 9.1°F-12.7°C 63% 5.4 mph E8.7 kmh E 9.2 mph14.8 kmh 30.12 in1020.0 mb 0.00 in0.0 mm 0.00 in/hr0.0 mm/hr 0.00 in0.0 mm
05:25 AM 19.6°F-6.9°C 9.1°F-12.7°C 63% 3.8 mph E6.1 kmh E 6.0 mph9.7 kmh 30.12 in1020.0 mb 0.00 in0.0 mm 0.00 in/hr0.0 mm/hr 0.00 in0.0 mm
05:24 AM 19.6°F-6.9°C 9.1°F-12.7°C 63% 3.1 mph E5.0 kmh E 11.4 mph18.3 kmh 30.12 in1020.0 mb 0.00 in0.0 mm 0.00 in/hr0.0 mm/hr 0.00 in0.0 mm
05:23 AM 19.6°F-6.9°C 9.1°F-12.7°C 63% 3.8 mph ESE6.1 kmh ESE 11.4 mph18.3 kmh 30.12 in1020.0 mb 0.00 in0.0 mm 0.00 in/hr0.0 mm/hr 0.00 in0.0 mm
05:22 AM 19.6°F-6.9°C 9.1°F-12.7°C 63% 3.1 mph ESE5.0 kmh ESE 11.4 mph18.3 kmh 30.12 in1020.0 mb 0.00 in0.0 mm 0.00 in/hr0.0 mm/hr 0.00 in0.0 mm
05:21 AM 19.6°F-6.9°C 8.7°F-12.9°C 62% 3.8 mph ESE6.1 kmh ESE 11.4 mph18.3 kmh 30.11 in1019.6 mb 0.00 in0.0 mm 0.00 in/hr0.0 mm/hr 0.00 in0.0 mm
05:20 AM 19.6°F-6.9°C 8.7°F-12.9°C 62% 4.5 mph E7.2 kmh E 11.4 mph18.3 kmh 30.11 in1019.6 mb 0.00 in0.0 mm 0.00 in/hr0.0 mm/hr 0.00 in0.0 mm
05:19 AM 19.6°F-6.9°C 8.7°F-12.9°C 62% 3.1 mph ESE5.0 kmh ESE 11.4 mph18.3 kmh 30.11 in1019.6 mb 0.00 in0.0 mm 0.00 in/hr0.0 mm/hr 0.00 in0.0 mm
05:18 AM 19.6°F-6.9°C 8.7°F-12.9°C 62% 3.8 mph ESE6.1 kmh ESE 11.4 mph18.3 kmh 30.11 in1019.6 mb 0.00 in0.0 mm 0.00 in/hr0.0 mm/hr 0.00 in0.0 mm
05:17 AM 19.8°F-6.8°C 8.9°F-12.8°C 62% 3.8 mph ESE6.1 kmh ESE 11.4 mph18.3 kmh 30.11 in1019.6 mb 0.00 in0.0 mm 0.00 in/hr0.0 mm/hr 0.00 in0.0 mm
05:16 AM 19.6°F-6.9°C 8.7°F-12.9°C 62% 2.2 mph ESE3.5 kmh ESE 11.4 mph18.3 kmh 30.11 in1019.6 mb 0.00 in0.0 mm 0.00 in/hr0.0 mm/hr 0.00 in0.0 mm
05:15 AM 19.6°F-6.9°C 8.7°F-12.9°C 62% 3.1 mph E5.0 kmh E 11.4 mph18.3 kmh 30.11 in1019.6 mb 0.00 in0.0 mm 0.00 in/hr0.0 mm/hr 0.00 in0.0 mm
05:14 AM 19.6°F-6.9°C 8.7°F-12.9°C 62% 5.4 mph E8.7 kmh E 11.4 mph18.3 kmh 30.11 in1019.6 mb 0.00 in0.0 mm 0.00 in/hr0.0 mm/hr 0.00 in0.0 mm
05:13 AM 19.6°F-6.9°C 8.7°F-12.9°C 62% 4.5 mph E7.2 kmh E 9.2 mph14.8 kmh 30.11 in1019.6 mb 0.00 in0.0 mm 0.00 in/hr0.0 mm/hr 0.00 in0.0 mm
05:12 AM 19.6°F-6.9°C 8.7°F-12.9°C 62% 4.5 mph E7.2 kmh E 9.2 mph14.8 kmh 30.11 in1019.6 mb 0.00 in0.0 mm 0.00 in/hr0.0 mm/hr 0.00 in0.0 mm
05:11 AM 19.6°F-6.9°C 8.7°F-12.9°C 62% 3.1 mph E5.0 kmh E 9.2 mph14.8 kmh 30.11 in1019.6 mb 0.00 in0.0 mm 0.00 in/hr0.0 mm/hr 0.00 in0.0 mm
05:10 AM 19.6°F-6.9°C 9.1°F-12.7°C 63% 4.5 mph E7.2 kmh E 9.2 mph14.8 kmh 30.11 in1019.6 mb 0.00 in0.0 mm 0.00 in/hr0.0 mm/hr 0.00 in0.0 mm
05:09 AM 19.6°F-6.9°C 9.1°F-12.7°C 63% 4.5 mph ENE7.2 kmh ENE 9.2 mph14.8 kmh 30.11 in1019.6 mb 0.00 in0.0 mm 0.00 in/hr0.0 mm/hr 0.00 in0.0 mm
05:08 AM 19.6°F-6.9°C 9.1°F-12.7°C 63% 6.0 mph ENE9.7 kmh ENE 8.3 mph13.4 kmh 30.11 in1019.6 mb 0.00 in0.0 mm 0.00 in/hr0.0 mm/hr 0.00 in0.0 mm
05:07 AM 19.6°F-6.9°C 9.1°F-12.7°C 63% 5.4 mph ENE8.7 kmh ENE 9.2 mph14.8 kmh 30.11 in1019.6 mb 0.00 in0.0 mm 0.00 in/hr0.0 mm/hr 0.00 in0.0 mm
05:06 AM 19.8°F-6.8°C 10.3°F-12.1°C 66% 6.0 mph ENE9.7 kmh ENE 9.2 mph14.8 kmh 30.11 in1019.6 mb 0.00 in0.0 mm 0.00 in/hr0.0 mm/hr 0.00 in0.0 mm
05:05 AM 19.8°F-6.8°C 10.3°F-12.1°C 66% 6.0 mph ENE9.7 kmh ENE 9.2 mph14.8 kmh 30.10 in1019.3 mb 0.00 in0.0 mm 0.00 in/hr0.0 mm/hr 0.00 in0.0 mm
05:04 AM 19.8°F-6.8°C 10.3°F-12.1°C 66% 6.0 mph E9.7 kmh E 9.2 mph14.8 kmh 30.11 in1019.6 mb 0.00 in0.0 mm 0.00 in/hr0.0 mm/hr 0.00 in0.0 mm
05:03 AM 19.8°F-6.8°C 10.3°F-12.1°C 66% 6.0 mph E9.7 kmh E 9.2 mph14.8 kmh 30.10 in1019.3 mb 0.00 in0.0 mm 0.00 in/hr0.0 mm/hr 0.00 in0.0 mm
05:02 AM 19.8°F-6.8°C 10.3°F-12.1°C 66% 6.0 mph E9.7 kmh E 9.2 mph14.8 kmh 30.10 in1019.3 mb 0.00 in0.0 mm 0.00 in/hr0.0 mm/hr 0.00 in0.0 mm
05:01 AM 19.8°F-6.8°C 10.3°F-12.1°C 66% 6.0 mph E9.7 kmh E 9.2 mph14.8 kmh 30.10 in1019.3 mb 0.00 in0.0 mm 0.00 in/hr0.0 mm/hr 0.00 in0.0 mm
05:00 AM 19.8°F-6.8°C 10.3°F-12.1°C 66% 6.0 mph E9.7 kmh E 9.2 mph14.8 kmh 30.11 in1019.6 mb 0.00 in0.0 mm 0.00 in/hr0.0 mm/hr 0.00 in0.0 mm
04:59 AM 19.8°F-6.8°C 10.3°F-12.1°C 66% 6.0 mph E9.7 kmh E 9.2 mph14.8 kmh 30.11 in1019.6 mb 0.00 in0.0 mm 0.00 in/hr0.0 mm/hr 0.00 in0.0 mm
04:58 AM 19.8°F-6.8°C 10.6°F-11.9°C 67% 4.5 mph E7.2 kmh E 9.2 mph14.8 kmh 30.10 in1019.3 mb 0.00 in0.0 mm 0.00 in/hr0.0 mm/hr 0.00 in0.0 mm
04:57 AM 19.8°F-6.8°C 10.6°F-11.9°C 67% 4.5 mph E7.2 kmh E 9.2 mph14.8 kmh 30.10 in1019.3 mb 0.00 in0.0 mm 0.00 in/hr0.0 mm/hr 0.00 in0.0 mm
04:56 AM 19.9°F-6.7°C 10.8°F-11.8°C 67% 3.8 mph E6.1 kmh E 7.6 mph12.2 kmh 30.10 in1019.3 mb 0.00 in0.0 mm 0.00 in/hr0.0 mm/hr 0.00 in0.0 mm
04:55 AM 19.9°F-6.7°C 10.8°F-11.8°C 67% 3.8 mph E6.1 kmh E 7.6 mph12.2 kmh 30.10 in1019.3 mb 0.00 in0.0 mm 0.00 in/hr0.0 mm/hr 0.00 in0.0 mm
04:54 AM 20.1°F-6.6°C 11.0°F-11.7°C 67% 4.5 mph E7.2 kmh E 9.8 mph15.8 kmh 30.10 in1019.3 mb 0.00 in0.0 mm 0.00 in/hr0.0 mm/hr 0.00 in0.0 mm
04:53 AM 20.3°F-6.5°C 11.1°F-11.6°C 67% 5.4 mph ENE8.7 kmh ENE 9.8 mph15.8 kmh 30.10 in1019.3 mb 0.00 in0.0 mm 0.00 in/hr0.0 mm/hr 0.00 in0.0 mm
04:52 AM 20.3°F-6.5°C 11.1°F-11.6°C 67% 5.4 mph ENE8.7 kmh ENE 9.8 mph15.8 kmh 30.10 in1019.3 mb 0.00 in0.0 mm 0.00 in/hr0.0 mm/hr 0.00 in0.0 mm
04:51 AM 20.3°F-6.5°C 11.1°F-11.6°C 67% 3.1 mph ENE5.0 kmh ENE 9.8 mph15.8 kmh 30.10 in1019.3 mb 0.00 in0.0 mm 0.00 in/hr0.0 mm/hr 0.00 in0.0 mm
04:50 AM 20.3°F-6.5°C 10.8°F-11.8°C 66% 3.1 mph ENE5.0 kmh ENE 9.8 mph15.8 kmh 30.09 in1019.0 mb 0.00 in0.0 mm 0.00 in/hr0.0 mm/hr 0.00 in0.0 mm
04:49 AM 20.3°F-6.5°C 10.8°F-11.8°C 66% 2.2 mph ENE3.5 kmh ENE 9.8 mph15.8 kmh 30.10 in1019.3 mb 0.00 in0.0 mm 0.00 in/hr0.0 mm/hr 0.00 in0.0 mm
04:48 AM 20.1°F-6.6°C 10.6°F-11.9°C 66% 3.1 mph ENE5.0 kmh ENE 9.8 mph15.8 kmh 30.10 in1019.3 mb 0.00 in0.0 mm 0.00 in/hr0.0 mm/hr 0.00 in0.0 mm
04:47 AM 20.1°F-6.6°C 10.6°F-11.9°C 66% 3.1 mph NE5.0 kmh NE 9.8 mph15.8 kmh 30.09 in1019.0 mb 0.00 in0.0 mm 0.00 in/hr0.0 mm/hr 0.00 in0.0 mm
04:46 AM 20.1°F-6.6°C 10.6°F-11.9°C 66% 4.5 mph NE7.2 kmh NE 9.8 mph15.8 kmh 30.10 in1019.3 mb 0.00 in0.0 mm 0.00 in/hr0.0 mm/hr 0.00 in0.0 mm
04:45 AM 20.1°F-6.6°C 10.6°F-11.9°C 66% 7.6 mph NE12.2 kmh NE 9.8 mph15.8 kmh 30.09 in1019.0 mb 0.00 in0.0 mm 0.00 in/hr0.0 mm/hr 0.00 in0.0 mm
04:44 AM 20.3°F-6.5°C 10.8°F-11.8°C 66% 6.0 mph NE9.7 kmh NE 9.2 mph14.8 kmh 30.10 in1019.3 mb 0.00 in0.0 mm 0.00 in/hr0.0 mm/hr 0.00 in0.0 mm
04:43 AM 20.3°F-6.5°C 10.8°F-11.8°C 66% 6.0 mph ENE9.7 kmh ENE 9.2 mph14.8 kmh 30.09 in1019.0 mb 0.00 in0.0 mm 0.00 in/hr0.0 mm/hr 0.00 in0.0 mm
04:42 AM 20.5°F-6.4°C 11.0°F-11.7°C 66% 5.4 mph ENE8.7 kmh ENE 8.3 mph13.4 kmh 30.10 in1019.3 mb 0.00 in0.0 mm 0.00 in/hr0.0 mm/hr 0.00 in0.0 mm
04:41 AM 20.3°F-6.5°C 10.8°F-11.8°C 66% 3.8 mph E6.1 kmh E 8.3 mph13.4 kmh 30.09 in1019.0 mb 0.00 in0.0 mm 0.00 in/hr0.0 mm/hr 0.00 in0.0 mm
04:40 AM 20.5°F-6.4°C 11.0°F-11.7°C 66% 6.0 mph E9.7 kmh E 8.3 mph13.4 kmh 30.09 in1019.0 mb 0.00 in0.0 mm 0.00 in/hr0.0 mm/hr 0.00 in0.0 mm
04:39 AM 20.5°F-6.4°C 11.0°F-11.7°C 66% 5.4 mph E8.7 kmh E 8.3 mph13.4 kmh 30.09 in1019.0 mb 0.00 in0.0 mm 0.00 in/hr0.0 mm/hr 0.00 in0.0 mm
04:38 AM 20.7°F-6.3°C 11.2°F-11.6°C 66% 5.4 mph E8.7 kmh E 8.3 mph13.4 kmh 30.09 in1019.0 mb 0.00 in0.0 mm 0.00 in/hr0.0 mm/hr 0.00 in0.0 mm
04:37 AM 20.7°F-6.3°C 11.2°F-11.6°C 66% 3.8 mph E6.1 kmh E 8.3 mph13.4 kmh 30.09 in1019.0 mb 0.00 in0.0 mm 0.00 in/hr0.0 mm/hr 0.00 in0.0 mm
04:36 AM 20.7°F-6.3°C 11.2°F-11.6°C 66% 3.8 mph E6.1 kmh E 8.3 mph13.4 kmh 30.09 in1019.0 mb 0.00 in0.0 mm 0.00 in/hr0.0 mm/hr 0.00 in0.0 mm
04:35 AM 20.7°F-6.3°C 11.2°F-11.6°C 66% 5.4 mph E8.7 kmh E 8.3 mph13.4 kmh 30.09 in1019.0 mb 0.00 in0.0 mm 0.00 in/hr0.0 mm/hr 0.00 in0.0 mm
04:34 AM 20.7°F-6.3°C 11.2°F-11.6°C 66% 4.5 mph E7.2 kmh E 8.3 mph13.4 kmh 30.09 in1019.0 mb 0.00 in0.0 mm 0.00 in/hr0.0 mm/hr 0.00 in0.0 mm
04:33 AM 20.7°F-6.3°C 10.8°F-11.8°C 65% 3.8 mph E6.1 kmh E 8.3 mph13.4 kmh 30.09 in1019.0 mb 0.00 in0.0 mm 0.00 in/hr0.0 mm/hr 0.00 in0.0 mm
04:32 AM 20.5°F-6.4°C 10.6°F-11.9°C 65% 3.1 mph E5.0 kmh E 8.3 mph13.4 kmh 30.09 in1019.0 mb 0.00 in0.0 mm 0.00 in/hr0.0 mm/hr 0.00 in0.0 mm
04:31 AM 20.7°F-6.3°C 11.2°F-11.6°C 66% 6.0 mph E9.7 kmh E 8.3 mph13.4 kmh 30.09 in1019.0 mb 0.00 in0.0 mm 0.00 in/hr0.0 mm/hr 0.00 in0.0 mm
04:30 AM 20.7°F-6.3°C 10.8°F-11.8°C 65% 4.5 mph E7.2 kmh E 8.3 mph13.4 kmh 30.09 in1019.0 mb 0.00 in0.0 mm 0.00 in/hr0.0 mm/hr 0.00 in0.0 mm
04:29 AM 20.5°F-6.4°C 10.6°F-11.9°C 65% 3.8 mph E6.1 kmh E 8.3 mph13.4 kmh 30.09 in1019.0 mb 0.00 in0.0 mm 0.00 in/hr0.0 mm/hr 0.00 in0.0 mm
04:28 AM 20.7°F-6.3°C 10.8°F-11.8°C 65% 5.4 mph E8.7 kmh E 8.3 mph13.4 kmh 30.09 in1019.0 mb 0.00 in0.0 mm 0.00 in/hr0.0 mm/hr 0.00 in0.0 mm
04:27 AM 20.8°F-6.2°C 11.0°F-11.7°C 65% 6.0 mph E9.7 kmh E 8.3 mph13.4 kmh 30.09 in1019.0 mb 0.00 in0.0 mm 0.00 in/hr0.0 mm/hr 0.00 in0.0 mm
04:26 AM 20.8°F-6.2°C 11.0°F-11.7°C 65% 3.8 mph E6.1 kmh E 8.3 mph13.4 kmh 30.08 in1018.6 mb 0.00 in0.0 mm 0.00 in/hr0.0 mm/hr 0.00 in0.0 mm
04:25 AM 21.0°F-6.1°C 11.2°F-11.6°C 65% 3.8 mph E6.1 kmh E 8.3 mph13.4 kmh 30.08 in1018.6 mb 0.00 in0.0 mm 0.00 in/hr0.0 mm/hr 0.00 in0.0 mm
04:24 AM 20.8°F-6.2°C 11.0°F-11.7°C 65% 3.8 mph E6.1 kmh E 9.2 mph14.8 kmh 30.08 in1018.6 mb 0.00 in0.0 mm 0.00 in/hr0.0 mm/hr 0.00 in0.0 mm
04:23 AM 20.8°F-6.2°C 11.0°F-11.7°C 65% 4.5 mph ESE7.2 kmh ESE 9.2 mph14.8 kmh 30.08 in1018.6 mb 0.00 in0.0 mm 0.00 in/hr0.0 mm/hr 0.00 in0.0 mm
04:22 AM 21.0°F-6.1°C 11.2°F-11.6°C 65% 4.5 mph ESE7.2 kmh ESE 9.2 mph14.8 kmh 30.08 in1018.6 mb 0.00 in0.0 mm 0.00 in/hr0.0 mm/hr 0.00 in0.0 mm
04:21 AM 21.0°F-6.1°C 11.2°F-11.6°C 65% 5.4 mph E8.7 kmh E 9.2 mph14.8 kmh 30.08 in1018.6 mb 0.00 in0.0 mm 0.00 in/hr0.0 mm/hr 0.00 in0.0 mm
04:20 AM 21.0°F-6.1°C 11.2°F-11.6°C 65% 3.1 mph E5.0 kmh E 9.2 mph14.8 kmh 30.08 in1018.6 mb 0.00 in0.0 mm 0.00 in/hr0.0 mm/hr 0.00 in0.0 mm
04:19 AM 20.8°F-6.2°C 11.0°F-11.7°C 65% 3.8 mph E6.1 kmh E 9.2 mph14.8 kmh 30.08 in1018.6 mb 0.00 in0.0 mm 0.00 in/hr0.0 mm/hr 0.00 in0.0 mm
04:18 AM 21.0°F-6.1°C 11.2°F-11.6°C 65% 6.0 mph E9.7 kmh E 9.2 mph14.8 kmh 30.08 in1018.6 mb 0.00 in0.0 mm 0.00 in/hr0.0 mm/hr 0.00 in0.0 mm
04:17 AM 21.0°F-6.1°C 11.2°F-11.6°C 65% 3.1 mph E5.0 kmh E 9.2 mph14.8 kmh 30.08 in1018.6 mb 0.00 in0.0 mm 0.00 in/hr0.0 mm/hr 0.00 in0.0 mm
04:16 AM 21.2°F-6.0°C 11.3°F-11.5°C 65% 5.4 mph E8.7 kmh E 9.2 mph14.8 kmh 30.08 in1018.6 mb 0.00 in0.0 mm 0.00 in/hr0.0 mm/hr 0.00 in0.0 mm
04:15 AM 21.0°F-6.1°C 11.2°F-11.6°C 65% 3.1 mph ESE5.0 kmh ESE 9.2 mph14.8 kmh 30.08 in1018.6 mb 0.00 in0.0 mm 0.00 in/hr0.0 mm/hr 0.00 in0.0 mm
04:14 AM 21.0°F-6.1°C 11.2°F-11.6°C 65% 4.5 mph E7.2 kmh E 7.6 mph12.2 kmh 30.08 in1018.6 mb 0.00 in0.0 mm 0.00 in/hr0.0 mm/hr 0.00 in0.0 mm
04:13 AM 21.0°F-6.1°C 11.2°F-11.6°C 65% 4.5 mph E7.2 kmh E 7.6 mph12.2 kmh 30.08 in1018.6 mb 0.00 in0.0 mm 0.00 in/hr0.0 mm/hr 0.00 in0.0 mm
04:12 AM 21.0°F-6.1°C 11.2°F-11.6°C 65% 3.8 mph E6.1 kmh E 7.6 mph12.2 kmh 30.08 in1018.6 mb 0.00 in0.0 mm 0.00 in/hr0.0 mm/hr 0.00 in0.0 mm
04:11 AM 21.0°F-6.1°C 11.2°F-11.6°C 65% 4.5 mph E7.2 kmh E 8.3 mph13.4 kmh 30.08 in1018.6 mb 0.00 in0.0 mm 0.00 in/hr0.0 mm/hr 0.00 in0.0 mm
04:10 AM 21.2°F-6.0°C 11.3°F-11.5°C 65% 3.8 mph E6.1 kmh E 8.3 mph13.4 kmh 30.08 in1018.6 mb 0.00 in0.0 mm 0.00 in/hr0.0 mm/hr 0.00 in0.0 mm
04:09 AM 21.2°F-6.0°C 10.6°F-11.9°C 63% 3.1 mph E5.0 kmh E 8.3 mph13.4 kmh 30.08 in1018.6 mb 0.00 in0.0 mm 0.00 in/hr0.0 mm/hr 0.00 in0.0 mm
04:08 AM 21.2°F-6.0°C 10.6°F-11.9°C 63% 3.8 mph E6.1 kmh E 8.3 mph13.4 kmh 30.08 in1018.6 mb 0.00 in0.0 mm 0.00 in/hr0.0 mm/hr 0.00 in0.0 mm
04:07 AM 21.2°F-6.0°C 10.6°F-11.9°C 63% 3.8 mph E6.1 kmh E 9.2 mph14.8 kmh 30.08 in1018.6 mb 0.00 in0.0 mm 0.00 in/hr0.0 mm/hr 0.00 in0.0 mm
04:06 AM 21.2°F-6.0°C 10.6°F-11.9°C 63% 3.1 mph E5.0 kmh E 9.2 mph14.8 kmh 30.08 in1018.6 mb 0.00 in0.0 mm 0.00 in/hr0.0 mm/hr 0.00 in0.0 mm
04:05 AM 21.2°F-6.0°C 10.6°F-11.9°C 63% 3.8 mph E6.1 kmh E 9.2 mph14.8 kmh 30.08 in1018.6 mb 0.00 in0.0 mm 0.00 in/hr0.0 mm/hr 0.00 in0.0 mm
04:04 AM 21.2°F-6.0°C 10.6°F-11.9°C 63% 6.0 mph E9.7 kmh E 10.7 mph17.2 kmh 30.07 in1018.3 mb 0.00 in0.0 mm 0.00 in/hr0.0 mm/hr 0.00 in0.0 mm
04:03 AM 21.2°F-6.0°C 10.6°F-11.9°C 63% 3.8 mph E6.1 kmh E 10.7 mph17.2 kmh 30.07 in1018.3 mb 0.00 in0.0 mm 0.00 in/hr0.0 mm/hr 0.00 in0.0 mm
04:02 AM 21.2°F-6.0°C 10.6°F-11.9°C 63% 4.5 mph E7.2 kmh E 10.7 mph17.2 kmh 30.08 in1018.6 mb 0.00 in0.0 mm 0.00 in/hr0.0 mm/hr 0.00 in0.0 mm
04:01 AM 21.0°F-6.1°C 11.2°F-11.6°C 65% 5.4 mph E8.7 kmh E 10.7 mph17.2 kmh 30.07 in1018.3 mb 0.00 in0.0 mm 0.00 in/hr0.0 mm/hr 0.00 in0.0 mm
04:00 AM 21.0°F-6.1°C 10.5°F-11.9°C 63% 4.5 mph E7.2 kmh E 10.7 mph17.2 kmh 30.07 in1018.3 mb 0.00 in0.0 mm 0.00 in/hr0.0 mm/hr 0.00 in0.0 mm
03:59 AM 21.2°F-6.0°C 10.3°F-12.1°C 62% 6.0 mph E9.7 kmh E 10.7 mph17.2 kmh 30.07 in1018.3 mb 0.00 in0.0 mm 0.00 in/hr0.0 mm/hr 0.00 in0.0 mm
03:58 AM 21.2°F-6.0°C 10.3°F-12.1°C 62% 5.4 mph E8.7 kmh E 10.7 mph17.2 kmh 30.07 in1018.3 mb 0.00 in0.0 mm 0.00 in/hr0.0 mm/hr 0.00 in0.0 mm
03:57 AM 21.2°F-6.0°C 10.3°F-12.1°C 62% 5.4 mph E8.7 kmh E 10.7 mph17.2 kmh 30.06 in1017.9 mb 0.00 in0.0 mm 0.00 in/hr0.0 mm/hr 0.00 in0.0 mm
03:56 AM 21.2°F-6.0°C 10.3°F-12.1°C 62% 6.0 mph E9.7 kmh E 10.7 mph17.2 kmh 30.06 in1017.9 mb 0.00 in0.0 mm 0.00 in/hr0.0 mm/hr 0.00 in0.0 mm
03:55 AM 21.2°F-6.0°C 10.3°F-12.1°C 62% 6.9 mph E11.1 kmh E 10.7 mph17.2 kmh 30.06 in1017.9 mb 0.00 in0.0 mm 0.00 in/hr0.0 mm/hr 0.00 in0.0 mm
03:54 AM 21.2°F-6.0°C 10.3°F-12.1°C 62% 5.4 mph E8.7 kmh E 9.8 mph15.8 kmh 30.06 in1017.9 mb 0.00 in0.0 mm 0.00 in/hr0.0 mm/hr 0.00 in0.0 mm
03:53 AM 21.2°F-6.0°C 10.3°F-12.1°C 62% 5.4 mph E8.7 kmh E 9.8 mph15.8 kmh 30.06 in1017.9 mb 0.00 in0.0 mm 0.00 in/hr0.0 mm/hr 0.00 in0.0 mm
03:52 AM 21.4°F-5.9°C 10.4°F-12.0°C 62% 6.0 mph E9.7 kmh E 9.8 mph15.8 kmh 30.06 in1017.9 mb 0.00 in0.0 mm 0.00 in/hr0.0 mm/hr 0.00 in0.0 mm
03:51 AM 21.4°F-5.9°C 10.4°F-12.0°C 62% 6.9 mph E11.1 kmh E 9.8 mph15.8 kmh 30.06 in1017.9 mb 0.00 in0.0 mm 0.00 in/hr0.0 mm/hr 0.00 in0.0 mm
03:50 AM 21.6°F-5.8°C 11.0°F-11.7°C 63% 5.4 mph E8.7 kmh E 7.6 mph12.2 kmh 30.06 in1017.9 mb 0.00 in0.0 mm 0.00 in/hr0.0 mm/hr 0.00 in0.0 mm
03:49 AM 21.7°F-5.7°C 11.1°F-11.6°C 63% 3.8 mph E6.1 kmh E 7.6 mph12.2 kmh 30.07 in1018.3 mb 0.00 in0.0 mm 0.00 in/hr0.0 mm/hr 0.00 in0.0 mm
03:48 AM 21.6°F-5.8°C 10.6°F-11.9°C 62% 4.5 mph E7.2 kmh E 7.6 mph12.2 kmh 30.06 in1017.9 mb 0.00 in0.0 mm 0.00 in/hr0.0 mm/hr 0.00 in0.0 mm
03:47 AM 21.7°F-5.7°C 10.8°F-11.8°C 62% 3.8 mph E6.1 kmh E 6.9 mph11.1 kmh 30.06 in1017.9 mb 0.00 in0.0 mm 0.00 in/hr0.0 mm/hr 0.00 in0.0 mm
03:46 AM 21.7°F-5.7°C 10.8°F-11.8°C 62% 3.1 mph E5.0 kmh E 8.3 mph13.4 kmh 30.06 in1017.9 mb 0.00 in0.0 mm 0.00 in/hr0.0 mm/hr 0.00 in0.0 mm
03:45 AM 21.7°F-5.7°C 10.8°F-11.8°C 62% 3.8 mph E6.1 kmh E 8.3 mph13.4 kmh 30.06 in1017.9 mb 0.00 in0.0 mm 0.00 in/hr0.0 mm/hr 0.00 in0.0 mm
03:44 AM 21.6°F-5.8°C 10.6°F-11.9°C 62% 3.1 mph E5.0 kmh E 8.3 mph13.4 kmh 30.06 in1017.9 mb 0.00 in0.0 mm 0.00 in/hr0.0 mm/hr 0.00 in0.0 mm
03:43 AM 21.7°F-5.7°C 10.8°F-11.8°C 62% 3.8 mph E6.1 kmh E 8.3 mph13.4 kmh 30.06 in1017.9 mb 0.00 in0.0 mm 0.00 in/hr0.0 mm/hr 0.00 in0.0 mm
03:42 AM 21.6°F-5.8°C 10.6°F-11.9°C 62% 4.5 mph E7.2 kmh E 8.3 mph13.4 kmh 30.06 in1017.9 mb 0.00 in0.0 mm 0.00 in/hr0.0 mm/hr 0.00 in0.0 mm
03:41 AM 21.7°F-5.7°C 10.8°F-11.8°C 62% 3.8 mph E6.1 kmh E 8.3 mph13.4 kmh 30.06 in1017.9 mb 0.00 in0.0 mm 0.00 in/hr0.0 mm/hr 0.00 in0.0 mm
03:40 AM 21.7°F-5.7°C 10.8°F-11.8°C 62% 4.5 mph E7.2 kmh E 8.3 mph13.4 kmh 30.06 in1017.9 mb 0.00 in0.0 mm 0.00 in/hr0.0 mm/hr 0.00 in0.0 mm
03:39 AM 21.7°F-5.7°C 10.8°F-11.8°C 62% 3.1 mph E5.0 kmh E 8.3 mph13.4 kmh 30.05 in1017.6 mb 0.00 in0.0 mm 0.00 in/hr0.0 mm/hr 0.00 in0.0 mm
03:38 AM 21.7°F-5.7°C 10.8°F-11.8°C 62% 3.8 mph E6.1 kmh E 8.3 mph13.4 kmh 30.05 in1017.6 mb 0.00 in0.0 mm 0.00 in/hr0.0 mm/hr 0.00 in0.0 mm
03:37 AM 21.7°F-5.7°C 10.8°F-11.8°C 62% 3.8 mph E6.1 kmh E 8.3 mph13.4 kmh 30.06 in1017.9 mb 0.00 in0.0 mm 0.00 in/hr0.0 mm/hr 0.00 in0.0 mm
03:36 AM 21.7°F-5.7°C 10.8°F-11.8°C 62% 5.4 mph E8.7 kmh E 8.3 mph13.4 kmh 30.05 in1017.6 mb 0.00 in0.0 mm 0.00 in/hr0.0 mm/hr 0.00 in0.0 mm
03:35 AM 21.7°F-5.7°C 10.8°F-11.8°C 62% 3.1 mph ENE5.0 kmh ENE 7.6 mph12.2 kmh 30.05 in1017.6 mb 0.00 in0.0 mm 0.00 in/hr0.0 mm/hr 0.00 in0.0 mm
03:34 AM 21.9°F-5.6°C 10.9°F-11.7°C 62% 3.1 mph ENE5.0 kmh ENE 11.4 mph18.3 kmh 30.05 in1017.6 mb 0.00 in0.0 mm 0.00 in/hr0.0 mm/hr 0.00 in0.0 mm
03:33 AM 21.7°F-5.7°C 10.8°F-11.8°C 62% 3.1 mph ENE5.0 kmh ENE 11.4 mph18.3 kmh 30.05 in1017.6 mb 0.00 in0.0 mm 0.00 in/hr0.0 mm/hr 0.00 in0.0 mm
03:32 AM 21.7°F-5.7°C 10.8°F-11.8°C 62% 3.1 mph ENE5.0 kmh ENE 11.4 mph18.3 kmh 30.05 in1017.6 mb 0.00 in0.0 mm 0.00 in/hr0.0 mm/hr 0.00 in0.0 mm
03:31 AM 21.9°F-5.6°C 10.9°F-11.7°C 62% 3.8 mph NE6.1 kmh NE 11.4 mph18.3 kmh 30.05 in1017.6 mb 0.00 in0.0 mm 0.00 in/hr0.0 mm/hr 0.00 in0.0 mm
03:30 AM 21.9°F-5.6°C 10.9°F-11.7°C 62% 3.8 mph NE6.1 kmh NE 11.4 mph18.3 kmh 30.05 in1017.6 mb 0.00 in0.0 mm 0.00 in/hr0.0 mm/hr 0.00 in0.0 mm
03:29 AM 21.9°F-5.6°C 10.9°F-11.7°C 62% 4.5 mph NE7.2 kmh NE 11.4 mph18.3 kmh 30.05 in1017.6 mb 0.00 in0.0 mm 0.00 in/hr0.0 mm/hr 0.00 in0.0 mm
03:28 AM 22.1°F-5.5°C 11.1°F-11.6°C 62% 3.1 mph NNE5.0 kmh NNE 11.4 mph18.3 kmh 30.05 in1017.6 mb 0.00 in0.0 mm 0.00 in/hr0.0 mm/hr 0.00 in0.0 mm
03:27 AM 21.9°F-5.6°C 10.9°F-11.7°C 62% 3.1 mph NNE5.0 kmh NNE 11.4 mph18.3 kmh 30.05 in1017.6 mb 0.00 in0.0 mm 0.00 in/hr0.0 mm/hr 0.00 in0.0 mm
03:26 AM 21.9°F-5.6°C 10.9°F-11.7°C 62% 5.4 mph N8.7 kmh N 11.4 mph18.3 kmh 30.05 in1017.6 mb 0.00 in0.0 mm 0.00 in/hr0.0 mm/hr 0.00 in0.0 mm
03:25 AM 22.1°F-5.5°C 11.1°F-11.6°C 62% 5.4 mph N8.7 kmh N 11.4 mph18.3 kmh 30.04 in1017.3 mb 0.00 in0.0 mm 0.00 in/hr0.0 mm/hr 0.00 in0.0 mm
03:24 AM 22.1°F-5.5°C 11.1°F-11.6°C 62% 3.8 mph N6.1 kmh N 7.6 mph12.2 kmh 30.05 in1017.6 mb 0.00 in0.0 mm 0.00 in/hr0.0 mm/hr 0.00 in0.0 mm
03:23 AM 22.5°F-5.3°C 11.5°F-11.4°C 62% 3.1 mph N5.0 kmh N 5.4 mph8.7 kmh 30.04 in1017.3 mb 0.00 in0.0 mm 0.00 in/hr0.0 mm/hr 0.00 in0.0 mm
03:22 AM 22.5°F-5.3°C 11.5°F-11.4°C 62% 3.1 mph N5.0 kmh N 5.4 mph8.7 kmh 30.05 in1017.6 mb 0.00 in0.0 mm 0.00 in/hr0.0 mm/hr 0.00 in0.0 mm
03:21 AM 22.5°F-5.3°C 11.5°F-11.4°C 62% 3.1 mph N5.0 kmh N 5.4 mph8.7 kmh 30.04 in1017.3 mb 0.00 in0.0 mm 0.00 in/hr0.0 mm/hr 0.00 in0.0 mm
03:20 AM 22.5°F-5.3°C 11.5°F-11.4°C 62% 3.1 mph N5.0 kmh N 5.4 mph8.7 kmh 30.05 in1017.6 mb 0.00 in0.0 mm 0.00 in/hr0.0 mm/hr 0.00 in0.0 mm
03:19 AM 22.5°F-5.3°C 11.5°F-11.4°C 62% 3.1 mph NNE5.0 kmh NNE 6.0 mph9.7 kmh 30.05 in1017.6 mb 0.00 in0.0 mm 0.00 in/hr0.0 mm/hr 0.00 in0.0 mm
03:18 AM 22.5°F-5.3°C 11.5°F-11.4°C 62% 3.1 mph NE5.0 kmh NE 6.0 mph9.7 kmh 30.05 in1017.6 mb 0.00 in0.0 mm 0.00 in/hr0.0 mm/hr 0.00 in0.0 mm
03:17 AM 22.5°F-5.3°C 11.5°F-11.4°C 62% 3.1 mph NE5.0 kmh NE 6.0 mph9.7 kmh 30.05 in1017.6 mb 0.00 in0.0 mm 0.00 in/hr0.0 mm/hr 0.00 in0.0 mm
03:16 AM 22.5°F-5.3°C 11.5°F-11.4°C 62% 3.1 mph ENE5.0 kmh ENE 6.0 mph9.7 kmh 30.05 in1017.6 mb 0.00 in0.0 mm 0.00 in/hr0.0 mm/hr 0.00 in0.0 mm
03:15 AM 22.5°F-5.3°C 11.5°F-11.4°C 62% 3.1 mph E5.0 kmh E 6.0 mph9.7 kmh 30.04 in1017.3 mb 0.00 in0.0 mm 0.00 in/hr0.0 mm/hr 0.00 in0.0 mm
03:14 AM 22.5°F-5.3°C 11.5°F-11.4°C 62% 3.1 mph E5.0 kmh E 6.0 mph9.7 kmh 30.05 in1017.6 mb 0.00 in0.0 mm 0.00 in/hr0.0 mm/hr 0.00 in0.0 mm
03:13 AM 22.5°F-5.3°C 11.5°F-11.4°C 62% 3.1 mph E5.0 kmh E 6.0 mph9.7 kmh 30.05 in1017.6 mb 0.00 in0.0 mm 0.00 in/hr0.0 mm/hr 0.00 in0.0 mm
03:12 AM 22.5°F-5.3°C 11.5°F-11.4°C 62% 3.1 mph E5.0 kmh E 6.0 mph9.7 kmh 30.05 in1017.6 mb 0.00 in0.0 mm 0.00 in/hr0.0 mm/hr 0.00 in0.0 mm
03:11 AM 22.5°F-5.3°C 11.5°F-11.4°C 62% 1.6 mph E2.6 kmh E 6.0 mph9.7 kmh 30.05 in1017.6 mb 0.00 in0.0 mm 0.00 in/hr0.0 mm/hr 0.00 in0.0 mm
03:10 AM 22.5°F-5.3°C 11.5°F-11.4°C 62% 3.1 mph E5.0 kmh E 6.0 mph9.7 kmh 30.05 in1017.6 mb 0.00 in0.0 mm 0.00 in/hr0.0 mm/hr 0.00 in0.0 mm
03:09 AM 22.5°F-5.3°C 11.5°F-11.4°C 62% 3.8 mph E6.1 kmh E 6.0 mph9.7 kmh 30.05 in1017.6 mb 0.00 in0.0 mm 0.00 in/hr0.0 mm/hr 0.00 in0.0 mm
03:08 AM 22.5°F-5.3°C 11.5°F-11.4°C 62% 3.1 mph E5.0 kmh E 6.0 mph9.7 kmh 30.05 in1017.6 mb 0.00 in0.0 mm 0.00 in/hr0.0 mm/hr 0.00 in0.0 mm
03:07 AM 22.5°F-5.3°C 11.1°F-11.6°C 61% 2.2 mph E3.5 kmh E 6.0 mph9.7 kmh 30.05 in1017.6 mb 0.00 in0.0 mm 0.00 in/hr0.0 mm/hr 0.00 in0.0 mm
03:06 AM 22.5°F-5.3°C 11.1°F-11.6°C 61% 3.1 mph E5.0 kmh E 6.0 mph9.7 kmh 30.05 in1017.6 mb 0.00 in0.0 mm 0.00 in/hr0.0 mm/hr 0.00 in0.0 mm
03:05 AM 22.5°F-5.3°C 11.1°F-11.6°C 61% 3.1 mph E5.0 kmh E 6.0 mph9.7 kmh 30.05 in1017.6 mb 0.00 in0.0 mm 0.00 in/hr0.0 mm/hr 0.00 in0.0 mm
03:04 AM 22.5°F-5.3°C 11.1°F-11.6°C 61% 1.6 mph E2.6 kmh E 6.0 mph9.7 kmh 30.04 in1017.3 mb 0.00 in0.0 mm 0.00 in/hr0.0 mm/hr 0.00 in0.0 mm
03:03 AM 22.5°F-5.3°C 11.1°F-11.6°C 61% 2.2 mph E3.5 kmh E 6.0 mph9.7 kmh 30.04 in1017.3 mb 0.00 in0.0 mm 0.00 in/hr0.0 mm/hr 0.00 in0.0 mm
03:02 AM 22.5°F-5.3°C 11.1°F-11.6°C 61% 3.8 mph E6.1 kmh E 6.0 mph9.7 kmh 30.04 in1017.3 mb 0.00 in0.0 mm 0.00 in/hr0.0 mm/hr 0.00 in0.0 mm
03:01 AM 22.5°F-5.3°C 11.1°F-11.6°C 61% 3.1 mph E5.0 kmh E 6.0 mph9.7 kmh 30.04 in1017.3 mb 0.00 in0.0 mm 0.00 in/hr0.0 mm/hr 0.00 in0.0 mm
03:00 AM 22.6°F-5.2°C 11.3°F-11.5°C 61% 3.1 mph E5.0 kmh E 6.0 mph9.7 kmh 30.04 in1017.3 mb 0.00 in0.0 mm 0.00 in/hr0.0 mm/hr 0.00 in0.0 mm
02:59 AM 22.6°F-5.2°C 11.3°F-11.5°C 61% 2.2 mph E3.5 kmh E 6.0 mph9.7 kmh 30.04 in1017.3 mb 0.00 in0.0 mm 0.00 in/hr0.0 mm/hr 0.00 in0.0 mm
02:58 AM 22.6°F-5.2°C 11.3°F-11.5°C 61% 3.1 mph E5.0 kmh E 6.0 mph9.7 kmh 30.04 in1017.3 mb 0.00 in0.0 mm 0.00 in/hr0.0 mm/hr 0.00 in0.0 mm
02:57 AM 22.6°F-5.2°C 11.3°F-11.5°C 61% 3.1 mph ESE5.0 kmh ESE 6.0 mph9.7 kmh 30.04 in1017.3 mb 0.00 in0.0 mm 0.00 in/hr0.0 mm/hr 0.00 in0.0 mm
02:56 AM 22.6°F-5.2°C 11.3°F-11.5°C 61% 1.6 mph ESE2.6 kmh ESE 6.0 mph9.7 kmh 30.04 in1017.3 mb 0.00 in0.0 mm 0.00 in/hr0.0 mm/hr 0.00 in0.0 mm
02:55 AM 22.8°F-5.1°C 11.4°F-11.4°C 61% 2.2 mph ESE3.5 kmh ESE 6.0 mph9.7 kmh 30.04 in1017.3 mb 0.00 in0.0 mm 0.00 in/hr0.0 mm/hr 0.00 in0.0 mm
02:54 AM 22.8°F-5.1°C 11.8°F-11.2°C 62% 3.1 mph E5.0 kmh E 6.0 mph9.7 kmh 30.04 in1017.3 mb 0.00 in0.0 mm 0.00 in/hr0.0 mm/hr 0.00 in0.0 mm
02:53 AM 22.8°F-5.1°C 11.8°F-11.2°C 62% 2.2 mph E3.5 kmh E 6.0 mph9.7 kmh 30.04 in1017.3 mb 0.00 in0.0 mm 0.00 in/hr0.0 mm/hr 0.00 in0.0 mm
02:52 AM 22.8°F-5.1°C 11.4°F-11.4°C 61% 2.2 mph E3.5 kmh E 4.5 mph7.2 kmh 30.04 in1017.3 mb 0.00 in0.0 mm 0.00 in/hr0.0 mm/hr 0.00 in0.0 mm
02:51 AM 22.8°F-5.1°C 11.4°F-11.4°C 61% 1.6 mph E2.6 kmh E 4.5 mph7.2 kmh 30.04 in1017.3 mb 0.00 in0.0 mm 0.00 in/hr0.0 mm/hr 0.00 in0.0 mm
02:50 AM 22.8°F-5.1°C 11.4°F-11.4°C 61% 1.6 mph E2.6 kmh E 4.5 mph7.2 kmh 30.04 in1017.3 mb 0.00 in0.0 mm 0.00 in/hr0.0 mm/hr 0.00 in0.0 mm
02:49 AM 22.8°F-5.1°C 11.4°F-11.4°C 61% 1.6 mph E2.6 kmh E 4.5 mph7.2 kmh 30.04 in1017.3 mb 0.00 in0.0 mm 0.00 in/hr0.0 mm/hr 0.00 in0.0 mm
02:48 AM 22.8°F-5.1°C 11.4°F-11.4°C 61% 1.6 mph E2.6 kmh E 4.5 mph7.2 kmh 30.04 in1017.3 mb 0.00 in0.0 mm 0.00 in/hr0.0 mm/hr 0.00 in0.0 mm
02:47 AM 22.8°F-5.1°C 11.4°F-11.4°C 61% 1.6 mph E2.6 kmh E 4.5 mph7.2 kmh 30.04 in1017.3 mb 0.00 in0.0 mm 0.00 in/hr0.0 mm/hr 0.00 in0.0 mm
02:46 AM 22.8°F-5.1°C 11.4°F-11.4°C 61% 1.6 mph E2.6 kmh E 4.5 mph7.2 kmh 30.05 in1017.6 mb 0.00 in0.0 mm 0.00 in/hr0.0 mm/hr 0.00 in0.0 mm
02:45 AM 22.8°F-5.1°C 11.4°F-11.4°C 61% 1.6 mph E2.6 kmh E 4.5 mph7.2 kmh 30.05 in1017.6 mb 0.00 in0.0 mm 0.00 in/hr0.0 mm/hr 0.00 in0.0 mm
02:44 AM 22.8°F-5.1°C 11.4°F-11.4°C 61% 1.6 mph E2.6 kmh E 4.5 mph7.2 kmh 30.05 in1017.6 mb 0.00 in0.0 mm 0.00 in/hr0.0 mm/hr 0.00 in0.0 mm
02:43 AM 23.0°F-5.0°C 11.2°F-11.6°C 60% 3.1 mph E5.0 kmh E 4.5 mph7.2 kmh 30.05 in1017.6 mb 0.00 in0.0 mm 0.00 in/hr0.0 mm/hr 0.00 in0.0 mm
02:42 AM 22.8°F-5.1°C 11.4°F-11.4°C 61% 1.6 mph ESE2.6 kmh ESE 4.5 mph7.2 kmh 30.05 in1017.6 mb 0.00 in0.0 mm 0.00 in/hr0.0 mm/hr 0.00 in0.0 mm
02:41 AM 23.0°F-5.0°C 11.2°F-11.6°C 60% 3.1 mph E5.0 kmh E 4.5 mph7.2 kmh 30.05 in1017.6 mb 0.00 in0.0 mm 0.00 in/hr0.0 mm/hr 0.00 in0.0 mm
02:40 AM 23.0°F-5.0°C 11.2°F-11.6°C 60% 1.6 mph ESE2.6 kmh ESE 4.5 mph7.2 kmh 30.04 in1017.3 mb 0.00 in0.0 mm 0.00 in/hr0.0 mm/hr 0.00 in0.0 mm
02:39 AM 23.0°F-5.0°C 11.2°F-11.6°C 60% 1.6 mph E2.6 kmh E 4.5 mph7.2 kmh 30.05 in1017.6 mb 0.00 in0.0 mm 0.00 in/hr0.0 mm/hr 0.00 in0.0 mm
02:38 AM 23.2°F-4.9°C 11.4°F-11.4°C 60% 1.6 mph ESE2.6 kmh ESE 4.5 mph7.2 kmh 30.04 in1017.3 mb 0.00 in0.0 mm 0.00 in/hr0.0 mm/hr 0.00 in0.0 mm
02:37 AM 23.2°F-4.9°C 11.4°F-11.4°C 60% 1.6 mph E2.6 kmh E 4.5 mph7.2 kmh 30.04 in1017.3 mb 0.00 in0.0 mm 0.00 in/hr0.0 mm/hr 0.00 in0.0 mm
02:36 AM 23.2°F-4.9°C 11.4°F-11.4°C 60% 1.6 mph E2.6 kmh E 4.5 mph7.2 kmh 30.04 in1017.3 mb 0.00 in0.0 mm 0.00 in/hr0.0 mm/hr 0.00 in0.0 mm
02:35 AM 23.2°F-4.9°C 11.4°F-11.4°C 60% 1.6 mph E2.6 kmh E 4.5 mph7.2 kmh 30.04 in1017.3 mb 0.00 in0.0 mm 0.00 in/hr0.0 mm/hr 0.00 in0.0 mm
02:34 AM 23.2°F-4.9°C 11.4°F-11.4°C 60% 1.6 mph E2.6 kmh E 4.5 mph7.2 kmh 30.04 in1017.3 mb 0.00 in0.0 mm 0.00 in/hr0.0 mm/hr 0.00 in0.0 mm
02:33 AM 23.2°F-4.9°C 11.4°F-11.4°C 60% 1.6 mph E2.6 kmh E 4.5 mph7.2 kmh 30.04 in1017.3 mb 0.00 in0.0 mm 0.00 in/hr0.0 mm/hr 0.00 in0.0 mm
02:32 AM 23.2°F-4.9°C 11.4°F-11.4°C 60% 1.6 mph E2.6 kmh E 4.5 mph7.2 kmh 30.04 in1017.3 mb 0.00 in0.0 mm 0.00 in/hr0.0 mm/hr 0.00 in0.0 mm
02:31 AM 23.2°F-4.9°C 11.4°F-11.4°C 60% 1.6 mph E2.6 kmh E 4.5 mph7.2 kmh 30.04 in1017.3 mb 0.00 in0.0 mm 0.00 in/hr0.0 mm/hr 0.00 in0.0 mm
02:30 AM 23.2°F-4.9°C 11.4°F-11.4°C 60% 1.6 mph E2.6 kmh E 4.5 mph7.2 kmh 30.04 in1017.3 mb 0.00 in0.0 mm 0.00 in/hr0.0 mm/hr 0.00 in0.0 mm
02:29 AM 23.2°F-4.9°C 11.4°F-11.4°C 60% 2.2 mph E3.5 kmh E 4.5 mph7.2 kmh 30.04 in1017.3 mb 0.00 in0.0 mm 0.00 in/hr0.0 mm/hr 0.00 in0.0 mm
02:28 AM 23.2°F-4.9°C 11.4°F-11.4°C 60% 0.7 mph E1.1 kmh E 3.8 mph6.1 kmh 30.04 in1017.3 mb 0.00 in0.0 mm 0.00 in/hr0.0 mm/hr 0.00 in0.0 mm
02:27 AM 23.4°F-4.8°C 11.6°F-11.3°C 60% 1.6 mph E2.6 kmh E 3.8 mph6.1 kmh 30.04 in1017.3 mb 0.00 in0.0 mm 0.00 in/hr0.0 mm/hr 0.00 in0.0 mm
02:26 AM 23.4°F-4.8°C 11.6°F-11.3°C 60% 2.2 mph ESE3.5 kmh ESE 4.5 mph7.2 kmh 30.04 in1017.3 mb 0.00 in0.0 mm 0.00 in/hr0.0 mm/hr 0.00 in0.0 mm
02:25 AM 23.4°F-4.8°C 11.6°F-11.3°C 60% 0.7 mph ESE1.1 kmh ESE 5.4 mph8.7 kmh 30.03 in1016.9 mb 0.00 in0.0 mm 0.00 in/hr0.0 mm/hr 0.00 in0.0 mm
02:24 AM 23.4°F-4.8°C 11.6°F-11.3°C 60% 2.2 mph ESE3.5 kmh ESE 6.0 mph9.7 kmh 30.04 in1017.3 mb 0.00 in0.0 mm 0.00 in/hr0.0 mm/hr 0.00 in0.0 mm
02:23 AM 23.5°F-4.7°C 11.7°F-11.3°C 60% 2.2 mph ESE3.5 kmh ESE 6.0 mph9.7 kmh 30.04 in1017.3 mb 0.00 in0.0 mm 0.00 in/hr0.0 mm/hr 0.00 in0.0 mm
02:22 AM 23.4°F-4.8°C 11.6°F-11.3°C 60% 1.6 mph ESE2.6 kmh ESE 6.0 mph9.7 kmh 30.03 in1016.9 mb 0.00 in0.0 mm 0.00 in/hr0.0 mm/hr 0.00 in0.0 mm
02:21 AM 23.4°F-4.8°C 11.6°F-11.3°C 60% 0.7 mph ESE1.1 kmh ESE 6.0 mph9.7 kmh 30.04 in1017.3 mb 0.00 in0.0 mm 0.00 in/hr0.0 mm/hr 0.00 in0.0 mm
02:20 AM 23.4°F-4.8°C 11.6°F-11.3°C 60% 1.6 mph ESE2.6 kmh ESE 6.0 mph9.7 kmh 30.03 in1016.9 mb 0.00 in0.0 mm 0.00 in/hr0.0 mm/hr 0.00 in0.0 mm
02:19 AM 23.4°F-4.8°C 11.6°F-11.3°C 60% 3.1 mph ESE5.0 kmh ESE 6.0 mph9.7 kmh 30.03 in1016.9 mb 0.00 in0.0 mm 0.00 in/hr0.0 mm/hr 0.00 in0.0 mm
02:18 AM 23.5°F-4.7°C 11.7°F-11.3°C 60% 1.6 mph E2.6 kmh E 6.0 mph9.7 kmh 30.03 in1016.9 mb 0.00 in0.0 mm 0.00 in/hr0.0 mm/hr 0.00 in0.0 mm
02:17 AM 23.5°F-4.7°C 11.7°F-11.3°C 60% 1.6 mph E2.6 kmh E 6.0 mph9.7 kmh 30.03 in1016.9 mb 0.00 in0.0 mm 0.00 in/hr0.0 mm/hr 0.00 in0.0 mm
02:16 AM 23.5°F-4.7°C 11.7°F-11.3°C 60% 3.1 mph E5.0 kmh E 6.0 mph9.7 kmh 30.03 in1016.9 mb 0.00 in0.0 mm 0.00 in/hr0.0 mm/hr 0.00 in0.0 mm
02:15 AM 23.5°F-4.7°C 11.7°F-11.3°C 60% 3.8 mph E6.1 kmh E 6.0 mph9.7 kmh 30.03 in1016.9 mb 0.00 in0.0 mm 0.00 in/hr0.0 mm/hr 0.00 in0.0 mm
02:14 AM 23.5°F-4.7°C 11.7°F-11.3°C 60% 3.8 mph E6.1 kmh E 6.0 mph9.7 kmh 30.04 in1017.3 mb 0.00 in0.0 mm 0.00 in/hr0.0 mm/hr 0.00 in0.0 mm
02:13 AM 23.5°F-4.7°C 11.7°F-11.3°C 60% 2.2 mph E3.5 kmh E 6.0 mph9.7 kmh 30.04 in1017.3 mb 0.00 in0.0 mm 0.00 in/hr0.0 mm/hr 0.00 in0.0 mm
02:12 AM 23.7°F-4.6°C 11.9°F-11.2°C 60% 4.5 mph E7.2 kmh E 6.0 mph9.7 kmh 30.03 in1016.9 mb 0.00 in0.0 mm 0.00 in/hr0.0 mm/hr 0.00 in0.0 mm
02:11 AM 23.7°F-4.6°C 11.9°F-11.2°C 60% 1.6 mph ENE2.6 kmh ENE 5.4 mph8.7 kmh 30.03 in1016.9 mb 0.00 in0.0 mm 0.00 in/hr0.0 mm/hr 0.00 in0.0 mm
02:10 AM 23.7°F-4.6°C 11.9°F-11.2°C 60% 1.6 mph ENE2.6 kmh ENE 5.4 mph8.7 kmh 30.03 in1016.9 mb 0.00 in0.0 mm 0.00 in/hr0.0 mm/hr 0.00 in0.0 mm
02:09 AM 23.7°F-4.6°C 11.9°F-11.2°C 60% 0.7 mph E1.1 kmh E 5.4 mph8.7 kmh 30.03 in1016.9 mb 0.00 in0.0 mm 0.00 in/hr0.0 mm/hr 0.00 in0.0 mm
02:08 AM 23.7°F-4.6°C 11.9°F-11.2°C 60% 1.6 mph E2.6 kmh E 5.4 mph8.7 kmh 30.03 in1016.9 mb 0.00 in0.0 mm 0.00 in/hr0.0 mm/hr 0.00 in0.0 mm
02:07 AM 23.7°F-4.6°C 11.9°F-11.2°C 60% 3.1 mph E5.0 kmh E 5.4 mph8.7 kmh 30.03 in1016.9 mb 0.00 in0.0 mm 0.00 in/hr0.0 mm/hr 0.00 in0.0 mm
02:06 AM 23.9°F-4.5°C 12.1°F-11.1°C 60% 1.6 mph E2.6 kmh E 6.9 mph11.1 kmh 30.03 in1016.9 mb 0.00 in0.0 mm 0.00 in/hr0.0 mm/hr 0.00 in0.0 mm
02:05 AM 23.9°F-4.5°C 12.1°F-11.1°C 60% 1.6 mph E2.6 kmh E 6.9 mph11.1 kmh 30.03 in1016.9 mb 0.00 in0.0 mm 0.00 in/hr0.0 mm/hr 0.00 in0.0 mm
02:04 AM 23.9°F-4.5°C 12.1°F-11.1°C 60% 2.2 mph E3.5 kmh E 6.9 mph11.1 kmh 30.03 in1016.9 mb 0.00 in0.0 mm 0.00 in/hr0.0 mm/hr 0.00 in0.0 mm
02:03 AM 23.9°F-4.5°C 12.1°F-11.1°C 60% 1.6 mph E2.6 kmh E 6.9 mph11.1 kmh 30.03 in1016.9 mb 0.00 in0.0 mm 0.00 in/hr0.0 mm/hr 0.00 in0.0 mm
02:02 AM 23.9°F-4.5°C 12.1°F-11.1°C 60% 1.6 mph E2.6 kmh E 6.9 mph11.1 kmh 30.03 in1016.9 mb 0.00 in0.0 mm 0.00 in/hr0.0 mm/hr 0.00 in0.0 mm
02:01 AM 23.9°F-4.5°C 12.1°F-11.1°C 60% 1.6 mph E2.6 kmh E 6.9 mph11.1 kmh 30.03 in1016.9 mb 0.00 in0.0 mm 0.00 in/hr0.0 mm/hr 0.00 in0.0 mm
02:00 AM 23.9°F-4.5°C 12.1°F-11.1°C 60% 1.6 mph E2.6 kmh E 6.9 mph11.1 kmh 30.03 in1016.9 mb 0.00 in0.0 mm 0.00 in/hr0.0 mm/hr 0.00 in0.0 mm
01:59 AM 23.9°F-4.5°C 12.1°F-11.1°C 60% 2.2 mph E3.5 kmh E 6.9 mph11.1 kmh 30.03 in1016.9 mb 0.00 in0.0 mm 0.00 in/hr0.0 mm/hr 0.00 in0.0 mm
01:58 AM 23.9°F-4.5°C 12.1°F-11.1°C 60% 3.1 mph E5.0 kmh E 6.9 mph11.1 kmh 30.03 in1016.9 mb 0.00 in0.0 mm 0.00 in/hr0.0 mm/hr 0.00 in0.0 mm
01:57 AM 23.9°F-4.5°C 12.1°F-11.1°C 60% 3.8 mph E6.1 kmh E 6.9 mph11.1 kmh 30.04 in1017.3 mb 0.00 in0.0 mm 0.00 in/hr0.0 mm/hr 0.00 in0.0 mm
01:56 AM 23.9°F-4.5°C 12.1°F-11.1°C 60% 4.5 mph E7.2 kmh E 6.9 mph11.1 kmh 30.03 in1016.9 mb 0.00 in0.0 mm 0.00 in/hr0.0 mm/hr 0.00 in0.0 mm
01:55 AM 23.9°F-4.5°C 12.1°F-11.1°C 60% 3.8 mph E6.1 kmh E 5.4 mph8.7 kmh 30.03 in1016.9 mb 0.00 in0.0 mm 0.00 in/hr0.0 mm/hr 0.00 in0.0 mm
01:54 AM 24.1°F-4.4°C 12.3°F-10.9°C 60% 3.1 mph E5.0 kmh E 5.4 mph8.7 kmh 30.03 in1016.9 mb 0.00 in0.0 mm 0.00 in/hr0.0 mm/hr 0.00 in0.0 mm
01:53 AM 24.1°F-4.4°C 12.3°F-10.9°C 60% 1.6 mph E2.6 kmh E 5.4 mph8.7 kmh 30.03 in1016.9 mb 0.00 in0.0 mm 0.00 in/hr0.0 mm/hr 0.00 in0.0 mm
01:52 AM 24.1°F-4.4°C 12.3°F-10.9°C 60% 1.6 mph E2.6 kmh E 5.4 mph8.7 kmh 30.03 in1016.9 mb 0.00 in0.0 mm 0.00 in/hr0.0 mm/hr 0.00 in0.0 mm
01:51 AM 23.9°F-4.5°C 12.1°F-11.1°C 60% 2.2 mph E3.5 kmh E 5.4 mph8.7 kmh 30.03 in1016.9 mb 0.00 in0.0 mm 0.00 in/hr0.0 mm/hr 0.00 in0.0 mm
01:50 AM 24.1°F-4.4°C 12.3°F-10.9°C 60% 3.1 mph E5.0 kmh E 5.4 mph8.7 kmh 30.03 in1016.9 mb 0.00 in0.0 mm 0.00 in/hr0.0 mm/hr 0.00 in0.0 mm
01:49 AM 24.1°F-4.4°C 12.3°F-10.9°C 60% 3.1 mph E5.0 kmh E 5.4 mph8.7 kmh 30.03 in1016.9 mb 0.00 in0.0 mm 0.00 in/hr0.0 mm/hr 0.00 in0.0 mm
01:48 AM 24.1°F-4.4°C 12.3°F-10.9°C 60% 2.2 mph E3.5 kmh E 5.4 mph8.7 kmh 30.03 in1016.9 mb 0.00 in0.0 mm 0.00 in/hr0.0 mm/hr 0.00 in0.0 mm
01:47 AM 24.1°F-4.4°C 12.3°F-10.9°C 60% 3.1 mph E5.0 kmh E 5.4 mph8.7 kmh 30.03 in1016.9 mb 0.00 in0.0 mm 0.00 in/hr0.0 mm/hr 0.00 in0.0 mm
01:46 AM 24.1°F-4.4°C 11.5°F-11.4°C 58% 2.2 mph E3.5 kmh E 5.4 mph8.7 kmh 30.03 in1016.9 mb 0.00 in0.0 mm 0.00 in/hr0.0 mm/hr 0.00 in0.0 mm
01:45 AM 24.1°F-4.4°C 11.5°F-11.4°C 58% 3.1 mph E5.0 kmh E 5.4 mph8.7 kmh 30.02 in1016.6 mb 0.00 in0.0 mm 0.00 in/hr0.0 mm/hr 0.00 in0.0 mm
01:44 AM 24.1°F-4.4°C 11.5°F-11.4°C 58% 3.1 mph E5.0 kmh E 5.4 mph8.7 kmh 30.02 in1016.6 mb 0.00 in0.0 mm 0.00 in/hr0.0 mm/hr 0.00 in0.0 mm
01:43 AM 24.1°F-4.4°C 11.5°F-11.4°C 58% 3.8 mph E6.1 kmh E 5.4 mph8.7 kmh 30.02 in1016.6 mb 0.00 in0.0 mm 0.00 in/hr0.0 mm/hr 0.00 in0.0 mm
01:42 AM 24.1°F-4.4°C 11.5°F-11.4°C 58% 3.1 mph E5.0 kmh E 5.4 mph8.7 kmh 30.02 in1016.6 mb 0.00 in0.0 mm 0.00 in/hr0.0 mm/hr 0.00 in0.0 mm
01:41 AM 24.1°F-4.4°C 11.5°F-11.4°C 58% 2.2 mph E3.5 kmh E 5.4 mph8.7 kmh 30.02 in1016.6 mb 0.00 in0.0 mm 0.00 in/hr0.0 mm/hr 0.00 in0.0 mm
01:40 AM 24.1°F-4.4°C 11.5°F-11.4°C 58% 2.2 mph E3.5 kmh E 6.0 mph9.7 kmh 30.02 in1016.6 mb 0.00 in0.0 mm 0.00 in/hr0.0 mm/hr 0.00 in0.0 mm
01:39 AM 24.3°F-4.3°C 11.7°F-11.3°C 58% 2.2 mph E3.5 kmh E 6.0 mph9.7 kmh 30.02 in1016.6 mb 0.00 in0.0 mm 0.00 in/hr0.0 mm/hr 0.00 in0.0 mm
01:38 AM 24.1°F-4.4°C 11.5°F-11.4°C 58% 1.6 mph E2.6 kmh E 6.0 mph9.7 kmh 30.02 in1016.6 mb 0.00 in0.0 mm 0.00 in/hr0.0 mm/hr 0.00 in0.0 mm
01:37 AM 24.1°F-4.4°C 11.5°F-11.4°C 58% 3.1 mph E5.0 kmh E 6.9 mph11.1 kmh 30.02 in1016.6 mb 0.00 in0.0 mm 0.00 in/hr0.0 mm/hr 0.00 in0.0 mm
01:36 AM 24.3°F-4.3°C 11.7°F-11.3°C 58% 2.2 mph E3.5 kmh E 6.9 mph11.1 kmh 30.02 in1016.6 mb 0.00 in0.0 mm 0.00 in/hr0.0 mm/hr 0.00 in0.0 mm
01:35 AM 24.3°F-4.3°C 11.7°F-11.3°C 58% 2.2 mph E3.5 kmh E 6.9 mph11.1 kmh 30.02 in1016.6 mb 0.00 in0.0 mm 0.00 in/hr0.0 mm/hr 0.00 in0.0 mm
01:34 AM 24.3°F-4.3°C 11.7°F-11.3°C 58% 2.2 mph E3.5 kmh E 6.9 mph11.1 kmh 30.02 in1016.6 mb 0.00 in0.0 mm 0.00 in/hr0.0 mm/hr 0.00 in0.0 mm
01:33 AM 24.3°F-4.3°C 11.7°F-11.3°C 58% 3.1 mph ESE5.0 kmh ESE 6.9 mph11.1 kmh 30.02 in1016.6 mb 0.00 in0.0 mm 0.00 in/hr0.0 mm/hr 0.00 in0.0 mm
01:32 AM 24.3°F-4.3°C 11.7°F-11.3°C 58% 2.2 mph ESE3.5 kmh ESE 6.9 mph11.1 kmh 30.02 in1016.6 mb 0.00 in0.0 mm 0.00 in/hr0.0 mm/hr 0.00 in0.0 mm
01:31 AM 24.3°F-4.3°C 11.7°F-11.3°C 58% 3.8 mph ESE6.1 kmh ESE 6.9 mph11.1 kmh 30.02 in1016.6 mb 0.00 in0.0 mm 0.00 in/hr0.0 mm/hr 0.00 in0.0 mm
01:30 AM 24.3°F-4.3°C 11.7°F-11.3°C 58% 1.6 mph ESE2.6 kmh ESE 6.9 mph11.1 kmh 30.02 in1016.6 mb 0.00 in0.0 mm 0.00 in/hr0.0 mm/hr 0.00 in0.0 mm
01:29 AM 24.3°F-4.3°C 11.7°F-11.3°C 58% 3.8 mph ESE6.1 kmh ESE 6.9 mph11.1 kmh 30.02 in1016.6 mb 0.00 in0.0 mm 0.00 in/hr0.0 mm/hr 0.00 in0.0 mm
01:28 AM 24.3°F-4.3°C 12.4°F-10.9°C 60% 2.2 mph ESE3.5 kmh ESE 6.9 mph11.1 kmh 30.02 in1016.6 mb 0.00 in0.0 mm 0.00 in/hr0.0 mm/hr 0.00 in0.0 mm
01:27 AM 24.3°F-4.3°C 12.4°F-10.9°C 60% 3.8 mph ESE6.1 kmh ESE 6.9 mph11.1 kmh 30.01 in1016.3 mb 0.00 in0.0 mm 0.00 in/hr0.0 mm/hr 0.00 in0.0 mm
01:26 AM 24.4°F-4.2°C 12.6°F-10.8°C 60% 2.2 mph E3.5 kmh E 6.0 mph9.7 kmh 30.02 in1016.6 mb 0.00 in0.0 mm 0.00 in/hr0.0 mm/hr 0.00 in0.0 mm
01:25 AM 24.4°F-4.2°C 12.6°F-10.8°C 60% 3.1 mph E5.0 kmh E 6.0 mph9.7 kmh 30.02 in1016.6 mb 0.00 in0.0 mm 0.00 in/hr0.0 mm/hr 0.00 in0.0 mm
01:24 AM 24.4°F-4.2°C 12.6°F-10.8°C 60% 2.2 mph E3.5 kmh E 6.0 mph9.7 kmh 30.02 in1016.6 mb 0.00 in0.0 mm 0.00 in/hr0.0 mm/hr 0.00 in0.0 mm
01:23 AM 24.4°F-4.2°C 11.8°F-11.2°C 58% 2.2 mph E3.5 kmh E 6.0 mph9.7 kmh 30.02 in1016.6 mb 0.00 in0.0 mm 0.00 in/hr0.0 mm/hr 0.00 in0.0 mm
01:22 AM 24.4°F-4.2°C 12.6°F-10.8°C 60% 2.2 mph E3.5 kmh E 4.5 mph7.2 kmh 30.02 in1016.6 mb 0.00 in0.0 mm 0.00 in/hr0.0 mm/hr 0.00 in0.0 mm
01:21 AM 24.6°F-4.1°C 12.8°F-10.7°C 60% 2.2 mph E3.5 kmh E 4.5 mph7.2 kmh 30.02 in1016.6 mb 0.00 in0.0 mm 0.00 in/hr0.0 mm/hr 0.00 in0.0 mm
01:20 AM 24.6°F-4.1°C 12.8°F-10.7°C 60% 2.2 mph E3.5 kmh E 4.5 mph7.2 kmh 30.02 in1016.6 mb 0.00 in0.0 mm 0.00 in/hr0.0 mm/hr 0.00 in0.0 mm
01:19 AM 24.6°F-4.1°C 12.8°F-10.7°C 60% 1.6 mph E2.6 kmh E 4.5 mph7.2 kmh 30.02 in1016.6 mb 0.00 in0.0 mm 0.00 in/hr0.0 mm/hr 0.00 in0.0 mm
01:18 AM 24.6°F-4.1°C 12.8°F-10.7°C 60% 1.6 mph E2.6 kmh E 4.5 mph7.2 kmh 30.02 in1016.6 mb 0.00 in0.0 mm 0.00 in/hr0.0 mm/hr 0.00 in0.0 mm
01:17 AM 24.8°F-4.0°C 12.2°F-11.0°C 58% 3.1 mph E5.0 kmh E 4.5 mph7.2 kmh 30.02 in1016.6 mb 0.00 in0.0 mm 0.00 in/hr0.0 mm/hr 0.00 in0.0 mm
01:16 AM 24.6°F-4.1°C 12.8°F-10.7°C 60% 2.2 mph E3.5 kmh E 4.5 mph7.2 kmh 30.02 in1016.6 mb 0.00 in0.0 mm 0.00 in/hr0.0 mm/hr 0.00 in0.0 mm
01:15 AM 24.6°F-4.1°C 12.8°F-10.7°C 60% 2.2 mph E3.5 kmh E 4.5 mph7.2 kmh 30.02 in1016.6 mb 0.00 in0.0 mm 0.00 in/hr0.0 mm/hr 0.00 in0.0 mm
01:14 AM 24.6°F-4.1°C 12.8°F-10.7°C 60% 2.2 mph E3.5 kmh E 4.5 mph7.2 kmh 30.02 in1016.6 mb 0.00 in0.0 mm 0.00 in/hr0.0 mm/hr 0.00 in0.0 mm
01:13 AM 24.6°F-4.1°C 12.8°F-10.7°C 60% 2.2 mph E3.5 kmh E 4.5 mph7.2 kmh 30.02 in1016.6 mb 0.00 in0.0 mm 0.00 in/hr0.0 mm/hr 0.00 in0.0 mm
01:12 AM 24.6°F-4.1°C 12.8°F-10.7°C 60% 2.2 mph E3.5 kmh E 4.5 mph7.2 kmh 30.01 in1016.3 mb 0.00 in0.0 mm 0.00 in/hr0.0 mm/hr 0.00 in0.0 mm
01:11 AM 24.6°F-4.1°C 13.1°F-10.5°C 61% 2.2 mph E3.5 kmh E 4.5 mph7.2 kmh 30.01 in1016.3 mb 0.00 in0.0 mm 0.00 in/hr0.0 mm/hr 0.00 in0.0 mm
01:10 AM 24.8°F-4.0°C 12.9°F-10.6°C 60% 0.7 mph E1.1 kmh E 4.5 mph7.2 kmh 30.01 in1016.3 mb 0.00 in0.0 mm 0.00 in/hr0.0 mm/hr 0.00 in0.0 mm
01:09 AM 24.8°F-4.0°C 12.9°F-10.6°C 60% 1.6 mph E2.6 kmh E 4.5 mph7.2 kmh 30.01 in1016.3 mb 0.00 in0.0 mm 0.00 in/hr0.0 mm/hr 0.00 in0.0 mm
01:08 AM 24.8°F-4.0°C 12.9°F-10.6°C 60% 1.6 mph E2.6 kmh E 4.5 mph7.2 kmh 30.01 in1016.3 mb 0.00 in0.0 mm 0.00 in/hr0.0 mm/hr 0.00 in0.0 mm
01:07 AM 24.8°F-4.0°C 12.9°F-10.6°C 60% 0.7 mph E1.1 kmh E 4.5 mph7.2 kmh 30.01 in1016.3 mb 0.00 in0.0 mm 0.00 in/hr0.0 mm/hr 0.00 in0.0 mm
01:06 AM 24.8°F-4.0°C 12.9°F-10.6°C 60% 2.2 mph E3.5 kmh E 4.5 mph7.2 kmh 30.01 in1016.3 mb 0.00 in0.0 mm 0.00 in/hr0.0 mm/hr 0.00 in0.0 mm
01:05 AM 24.8°F-4.0°C 12.9°F-10.6°C 60% 2.2 mph ENE3.5 kmh ENE 3.8 mph6.1 kmh 30.01 in1016.3 mb 0.00 in0.0 mm 0.00 in/hr0.0 mm/hr 0.00 in0.0 mm
01:04 AM 24.8°F-4.0°C 12.9°F-10.6°C 60% 0.7 mph ENE1.1 kmh ENE 3.8 mph6.1 kmh 30.01 in1016.3 mb 0.00 in0.0 mm 0.00 in/hr0.0 mm/hr 0.00 in0.0 mm
01:03 AM 24.8°F-4.0°C 12.9°F-10.6°C 60% 1.6 mph ENE2.6 kmh ENE 3.8 mph6.1 kmh 30.01 in1016.3 mb 0.00 in0.0 mm 0.00 in/hr0.0 mm/hr 0.00 in0.0 mm
01:02 AM 25.0°F-3.9°C 13.5°F-10.3°C 61% 1.6 mph E2.6 kmh E 3.1 mph5.0 kmh 30.01 in1016.3 mb 0.00 in0.0 mm 0.00 in/hr0.0 mm/hr 0.00 in0.0 mm
01:01 AM 25.0°F-3.9°C 13.1°F-10.5°C 60% 0.7 mph E1.1 kmh E 3.1 mph5.0 kmh 30.01 in1016.3 mb 0.00 in0.0 mm 0.00 in/hr0.0 mm/hr 0.00 in0.0 mm
01:00 AM 25.0°F-3.9°C 13.1°F-10.5°C 60% 0.7 mph E1.1 kmh E 3.1 mph5.0 kmh 30.01 in1016.3 mb 0.00 in0.0 mm 0.00 in/hr0.0 mm/hr 0.00 in0.0 mm
12:59 AM 25.0°F-3.9°C 13.1°F-10.5°C 60% 0.7 mph ENE1.1 kmh ENE 3.8 mph6.1 kmh 30.01 in1016.3 mb 0.00 in0.0 mm 0.00 in/hr0.0 mm/hr 0.00 in0.0 mm
12:58 AM 25.2°F-3.8°C 13.3°F-10.4°C 60% 1.6 mph ENE2.6 kmh ENE 3.8 mph6.1 kmh 30.01 in1016.3 mb 0.00 in0.0 mm 0.00 in/hr0.0 mm/hr 0.00 in0.0 mm
12:57 AM 25.2°F-3.8°C 13.3°F-10.4°C 60% 0.7 mph E1.1 kmh E 3.8 mph6.1 kmh 30.01 in1016.3 mb 0.00 in0.0 mm 0.00 in/hr0.0 mm/hr 0.00 in0.0 mm
12:56 AM 25.2°F-3.8°C 12.5°F-10.8°C 58% 0.7 mph E1.1 kmh E 3.8 mph6.1 kmh 30.01 in1016.3 mb 0.00 in0.0 mm 0.00 in/hr0.0 mm/hr 0.00 in0.0 mm
12:55 AM 25.2°F-3.8°C 12.5°F-10.8°C 58% Calm Calm 3.8 mph6.1 kmh 30.01 in1016.3 mb 0.00 in0.0 mm 0.00 in/hr0.0 mm/hr 0.00 in0.0 mm
12:54 AM 25.2°F-3.8°C 12.1°F-11.1°C 57% 1.6 mph E2.6 kmh E 3.8 mph6.1 kmh 30.01 in1016.3 mb 0.00 in0.0 mm 0.00 in/hr0.0 mm/hr 0.00 in0.0 mm
12:53 AM 25.2°F-3.8°C 12.1°F-11.1°C 57% 0.7 mph E1.1 kmh E 3.8 mph6.1 kmh 30.01 in1016.3 mb 0.00 in0.0 mm 0.00 in/hr0.0 mm/hr 0.00 in0.0 mm
12:52 AM 25.2°F-3.8°C 12.1°F-11.1°C 57% 0.7 mph E1.1 kmh E 3.8 mph6.1 kmh 30.01 in1016.3 mb 0.00 in0.0 mm 0.00 in/hr0.0 mm/hr 0.00 in0.0 mm
12:51 AM 25.2°F-3.8°C 12.1°F-11.1°C 57% 0.7 mph E1.1 kmh E 3.8 mph6.1 kmh 30.01 in1016.3 mb 0.00 in0.0 mm 0.00 in/hr0.0 mm/hr 0.00 in0.0 mm
12:50 AM 25.2°F-3.8°C 12.1°F-11.1°C 57% 1.6 mph E2.6 kmh E 3.8 mph6.1 kmh 30.01 in1016.3 mb 0.00 in0.0 mm 0.00 in/hr0.0 mm/hr 0.00 in0.0 mm
12:49 AM 25.2°F-3.8°C 12.1°F-11.1°C 57% 1.6 mph E2.6 kmh E 3.8 mph6.1 kmh 30.00 in1015.9 mb 0.00 in0.0 mm 0.00 in/hr0.0 mm/hr 0.00 in0.0 mm
12:48 AM 25.2°F-3.8°C 12.1°F-11.1°C 57% 0.7 mph E1.1 kmh E 3.1 mph5.0 kmh 30.01 in1016.3 mb 0.00 in0.0 mm 0.00 in/hr0.0 mm/hr 0.00 in0.0 mm
12:47 AM 25.2°F-3.8°C 12.1°F-11.1°C 57% Calm Calm 3.1 mph5.0 kmh 30.00 in1015.9 mb 0.00 in0.0 mm 0.00 in/hr0.0 mm/hr 0.00 in0.0 mm
12:46 AM 25.2°F-3.8°C 12.1°F-11.1°C 57% 0.7 mph E1.1 kmh E 3.1 mph5.0 kmh 30.00 in1015.9 mb 0.00 in0.0 mm 0.00 in/hr0.0 mm/hr 0.00 in0.0 mm
12:45 AM 25.2°F-3.8°C 12.1°F-11.1°C 57% Calm Calm 3.1 mph5.0 kmh 30.00 in1015.9 mb 0.00 in0.0 mm 0.00 in/hr0.0 mm/hr 0.00 in0.0 mm
12:44 AM 25.3°F-3.7°C 12.3°F-10.9°C 57% Calm Calm 3.1 mph5.0 kmh 30.00 in1015.9 mb 0.00 in0.0 mm 0.00 in/hr0.0 mm/hr 0.00 in0.0 mm
12:43 AM 25.2°F-3.8°C 11.7°F-11.3°C 56% Calm Calm 3.8 mph6.1 kmh 30.00 in1015.9 mb 0.00 in0.0 mm 0.00 in/hr0.0 mm/hr 0.00 in0.0 mm
12:42 AM 25.2°F-3.8°C 12.1°F-11.1°C 57% 0.7 mph E1.1 kmh E 3.8 mph6.1 kmh 30.00 in1015.9 mb 0.00 in0.0 mm 0.00 in/hr0.0 mm/hr 0.00 in0.0 mm
12:41 AM 25.3°F-3.7°C 12.3°F-10.9°C 57% 1.6 mph E2.6 kmh E 3.8 mph6.1 kmh 30.00 in1015.9 mb 0.00 in0.0 mm 0.00 in/hr0.0 mm/hr 0.00 in0.0 mm
12:40 AM 25.3°F-3.7°C 11.9°F-11.2°C 56% 1.6 mph E2.6 kmh E 3.8 mph6.1 kmh 30.00 in1015.9 mb 0.00 in0.0 mm 0.00 in/hr0.0 mm/hr 0.00 in0.0 mm
12:39 AM 25.3°F-3.7°C 11.9°F-11.2°C 56% Calm Calm 3.8 mph6.1 kmh 30.00 in1015.9 mb 0.00 in0.0 mm 0.00 in/hr0.0 mm/hr 0.00 in0.0 mm
12:38 AM 25.3°F-3.7°C 11.9°F-11.2°C 56% 0.7 mph ESE1.1 kmh ESE 3.8 mph6.1 kmh 30.00 in1015.9 mb 0.00 in0.0 mm 0.00 in/hr0.0 mm/hr 0.00 in0.0 mm
12:37 AM 25.3°F-3.7°C 11.9°F-11.2°C 56% Calm Calm 3.8 mph6.1 kmh 30.00 in1015.9 mb 0.00 in0.0 mm 0.00 in/hr0.0 mm/hr 0.00 in0.0 mm
12:36 AM 25.3°F-3.7°C 11.9°F-11.2°C 56% 1.6 mph ESE2.6 kmh ESE 3.8 mph6.1 kmh 30.00 in1015.9 mb 0.00 in0.0 mm 0.00 in/hr0.0 mm/hr 0.00 in0.0 mm
12:35 AM 25.3°F-3.7°C 11.9°F-11.2°C 56% 0.7 mph ESE1.1 kmh ESE 3.8 mph6.1 kmh 30.00 in1015.9 mb 0.00 in0.0 mm 0.00 in/hr0.0 mm/hr 0.00 in0.0 mm
12:34 AM 25.5°F-3.6°C 12.4°F-10.9°C 57% 1.6 mph ESE2.6 kmh ESE 3.8 mph6.1 kmh 30.00 in1015.9 mb 0.00 in0.0 mm 0.00 in/hr0.0 mm/hr 0.00 in0.0 mm
12:33 AM 25.5°F-3.6°C 12.4°F-10.9°C 57% 3.1 mph ESE5.0 kmh ESE 3.8 mph6.1 kmh 30.00 in1015.9 mb 0.00 in0.0 mm 0.00 in/hr0.0 mm/hr 0.00 in0.0 mm
12:32 AM 25.5°F-3.6°C 12.0°F-11.1°C 56% 0.7 mph ESE1.1 kmh ESE 3.1 mph5.0 kmh 30.00 in1015.9 mb 0.00 in0.0 mm 0.00 in/hr0.0 mm/hr 0.00 in0.0 mm
12:31 AM 25.3°F-3.7°C 12.3°F-10.9°C 57% 0.7 mph E1.1 kmh E 3.1 mph5.0 kmh 30.00 in1015.9 mb 0.00 in0.0 mm 0.00 in/hr0.0 mm/hr 0.00 in0.0 mm
12:30 AM 25.5°F-3.6°C 12.4°F-10.9°C 57% 1.6 mph E2.6 kmh E 3.1 mph5.0 kmh 30.00 in1015.9 mb 0.00 in0.0 mm 0.00 in/hr0.0 mm/hr 0.00 in0.0 mm
12:29 AM 25.5°F-3.6°C 12.4°F-10.9°C 57% 0.7 mph E1.1 kmh E 2.2 mph3.5 kmh 30.00 in1015.9 mb 0.00 in0.0 mm 0.00 in/hr0.0 mm/hr 0.00 in0.0 mm
12:28 AM 25.5°F-3.6°C 12.4°F-10.9°C 57% 1.6 mph E2.6 kmh E 2.2 mph3.5 kmh 30.00 in1015.9 mb 0.00 in0.0 mm 0.00 in/hr0.0 mm/hr 0.00 in0.0 mm
12:27 AM 25.5°F-3.6°C 12.4°F-10.9°C 57% 0.7 mph E1.1 kmh E 2.2 mph3.5 kmh 30.00 in1015.9 mb 0.00 in0.0 mm 0.00 in/hr0.0 mm/hr 0.00 in0.0 mm
12:26 AM 25.5°F-3.6°C 12.4°F-10.9°C 57% 0.7 mph E1.1 kmh E 2.2 mph3.5 kmh 30.00 in1015.9 mb 0.00 in0.0 mm 0.00 in/hr0.0 mm/hr 0.00 in0.0 mm
12:25 AM 25.5°F-3.6°C 12.4°F-10.9°C 57% 0.7 mph E1.1 kmh E 2.2 mph3.5 kmh 30.00 in1015.9 mb 0.00 in0.0 mm 0.00 in/hr0.0 mm/hr 0.00 in0.0 mm
12:24 AM 25.5°F-3.6°C 12.4°F-10.9°C 57% 0.7 mph E1.1 kmh E 2.2 mph3.5 kmh 30.00 in1015.9 mb 0.00 in0.0 mm 0.00 in/hr0.0 mm/hr 0.00 in0.0 mm
12:23 AM 25.5°F-3.6°C 12.4°F-10.9°C 57% 0.7 mph E1.1 kmh E 3.1 mph5.0 kmh 30.00 in1015.9 mb 0.00 in0.0 mm 0.00 in/hr0.0 mm/hr 0.00 in0.0 mm
12:22 AM 25.5°F-3.6°C 12.8°F-10.7°C 58% 0.7 mph ENE1.1 kmh ENE 3.1 mph5.0 kmh 30.00 in1015.9 mb 0.00 in0.0 mm 0.00 in/hr0.0 mm/hr 0.00 in0.0 mm
12:21 AM 25.5°F-3.6°C 12.8°F-10.7°C 58% 0.7 mph ENE1.1 kmh ENE 3.1 mph5.0 kmh 30.00 in1015.9 mb 0.00 in0.0 mm 0.00 in/hr0.0 mm/hr 0.00 in0.0 mm
12:20 AM 25.5°F-3.6°C 12.8°F-10.7°C 58% Calm Calm 3.1 mph5.0 kmh 30.00 in1015.9 mb 0.00 in0.0 mm 0.00 in/hr0.0 mm/hr 0.00 in0.0 mm
12:19 AM 25.5°F-3.6°C 13.6°F-10.2°C 60% 1.6 mph ENE2.6 kmh ENE 3.1 mph5.0 kmh 30.00 in1015.9 mb 0.00 in0.0 mm 0.00 in/hr0.0 mm/hr 0.00 in0.0 mm
12:18 AM 25.5°F-3.6°C 13.6°F-10.2°C 60% 0.7 mph ENE1.1 kmh ENE 3.1 mph5.0 kmh 29.99 in1015.6 mb 0.00 in0.0 mm 0.00 in/hr0.0 mm/hr 0.00 in0.0 mm
12:17 AM 25.5°F-3.6°C 14.0°F-10.0°C 61% 0.7 mph ENE1.1 kmh ENE 3.1 mph5.0 kmh 30.00 in1015.9 mb 0.00 in0.0 mm 0.00 in/hr0.0 mm/hr 0.00 in0.0 mm
12:16 AM 25.3°F-3.7°C 13.8°F-10.1°C 61% 0.7 mph ENE1.1 kmh ENE 3.1 mph5.0 kmh 30.00 in1015.9 mb 0.00 in0.0 mm 0.00 in/hr0.0 mm/hr 0.00 in0.0 mm
12:15 AM 25.2°F-3.8°C 14.4°F-9.8°C 63% 1.6 mph ENE2.6 kmh ENE 3.1 mph5.0 kmh 30.00 in1015.9 mb 0.00 in0.0 mm 0.00 in/hr0.0 mm/hr 0.00 in0.0 mm
12:14 AM 25.2°F-3.8°C 14.4°F-9.8°C 63% 1.6 mph ENE2.6 kmh ENE 3.1 mph5.0 kmh 29.99 in1015.6 mb 0.00 in0.0 mm 0.00 in/hr0.0 mm/hr 0.00 in0.0 mm
12:13 AM 25.2°F-3.8°C 14.4°F-9.8°C 63% 1.6 mph ENE2.6 kmh ENE 3.1 mph5.0 kmh 29.99 in1015.6 mb 0.00 in0.0 mm 0.00 in/hr0.0 mm/hr 0.00 in0.0 mm
12:12 AM 25.2°F-3.8°C 14.4°F-9.8°C 63% Calm Calm 1.6 mph2.6 kmh 29.99 in1015.6 mb 0.00 in0.0 mm 0.00 in/hr0.0 mm/hr 0.00 in0.0 mm
12:11 AM 25.2°F-3.8°C 14.4°F-9.8°C 63% Calm Calm -- 29.99 in1015.6 mb 0.00 in0.0 mm 0.00 in/hr0.0 mm/hr 0.00 in0.0 mm
12:10 AM 25.2°F-3.8°C 14.4°F-9.8°C 63% Calm Calm -- 29.99 in1015.6 mb 0.00 in0.0 mm 0.00 in/hr0.0 mm/hr 0.00 in0.0 mm
12:09 AM 25.0°F-3.9°C 14.2°F-9.9°C 63% Calm Calm -- 29.99 in1015.6 mb 0.00 in0.0 mm 0.00 in/hr0.0 mm/hr 0.00 in0.0 mm
12:08 AM 25.0°F-3.9°C 14.2°F-9.9°C 63% Calm Calm -- 29.99 in1015.6 mb 0.00 in0.0 mm 0.00 in/hr0.0 mm/hr 0.00 in0.0 mm
12:07 AM 25.0°F-3.9°C 14.2°F-9.9°C 63% Calm Calm -- 29.99 in1015.6 mb 0.00 in0.0 mm 0.00 in/hr0.0 mm/hr 0.00 in0.0 mm
12:06 AM 25.0°F-3.9°C 14.2°F-9.9°C 63% Calm Calm -- 29.99 in1015.6 mb 0.00 in0.0 mm 0.00 in/hr0.0 mm/hr 0.00 in0.0 mm
12:05 AM 25.0°F-3.9°C 14.2°F-9.9°C 63% Calm Calm -- 29.99 in1015.6 mb 0.00 in0.0 mm 0.00 in/hr0.0 mm/hr 0.00 in0.0 mm
12:04 AM 25.0°F-3.9°C 14.2°F-9.9°C 63% Calm Calm 0.7 mph1.1 kmh 29.99 in1015.6 mb 0.00 in0.0 mm 0.00 in/hr0.0 mm/hr 0.00 in0.0 mm
12:03 AM 24.8°F-4.0°C 14.0°F-10.0°C 63% Calm Calm 0.7 mph1.1 kmh 29.99 in1015.6 mb 0.00 in0.0 mm 0.00 in/hr0.0 mm/hr 0.00 in0.0 mm
12:02 AM 24.8°F-4.0°C 13.7°F-10.2°C 62% Calm Calm 0.7 mph1.1 kmh 29.99 in1015.6 mb 0.00 in0.0 mm 0.00 in/hr0.0 mm/hr 0.00 in0.0 mm
12:01 AM 24.8°F-4.0°C 13.7°F-10.2°C 62% Calm Calm 0.7 mph1.1 kmh 29.99 in1015.6 mb 0.00 in0.0 mm 0.00 in/hr0.0 mm/hr 0.00 in0.0 mm
12:00 AM 24.8°F-4.0°C 13.7°F-10.2°C 62% Calm Calm 0.7 mph1.1 kmh 29.99 in1015.6 mb 0.00 in0.0 mm 0.00 in/hr0.0 mm/hr 0.00 in0.0 mm